![]() |
![]() |
Daily Reports
[Select Refresh to Update]
Updated Automatically by Ambient Software's
Virtual Weather Station V14.01
NOAA Yearly Report
YEARLY CLIMATOLOGICAL SUMMARY FOR 2010
HEAT COOL
MEAN DEG DEG WIND SPEED DOM MEAN MEAN
MON TEMP HIGH DATE LOW DATE DAYS DAYS RAIN AVG HI DATE DIR BAROM HUM
---------------------------------------------------------------------------------------
1 5.1 14.9 19/1/10 -7.6 10/1/10 1762 0 54.00 8 42 1/1/10 O681.01 67
2 6.2 20.5 27/2/10 -4.7 12/2/10 1308 0 46.00 8 52 27/2/10 ENE681.01 60
3 8.7 22.9 28/3/10 -4.1 11/3/10 1505 0 35.00 8 50 30/3/10 NO681.01 48
4 13.9 32.3 27/4/10 2.4 8/4/10 1534 0 45.00 6 36 7/4/10 ENE681.01 42
5 16.6 37.0 31/5/10 1.8 6/5/10 1465 0 13.00 8 44 4/5/10 NO681.01 33
6
7 29.0 43.8 19/7/10 18.4 15/7/10 936 0 0.00 6 31 14/7/10 E681.01 21
8 26.2 40.9 26/8/10 15.9 18/8/10 1047 0 59.00 6 32 27/8/10 ENE681.01 31
9 20.3 34.4 5/9/10 8.8 26/9/10 838 0 24.00 5 44 7/9/10 ENE681.02 39
10 14.1 29.3 2/10/10 0.1 26/10/10 1539 0 27.00 6 44 31/10/10 NO681.01 41
11 8.9 10.5 6/11/10 8.5 1/11/10 379 0 0.00 7 34 1/11/10 NO681.03 81
---------------------------------------------------------------------------------------
TOT 15.9 43.8 19/7/10 -7.6 10/1/1013351 0330.00 7 52 27/2/10 ENE681.00 42
HEAT BASE: 65.0
COOL BASE: 65.0
NOAA Monthly Report
MONTHLY CLIMATOLOGICAL SUMMARY FOR 11/2010
HEAT COOL
MEAN DEG DEG WIND SPEED DOM MEAN MEAN
DAY TEMP HIGH TIME LOW TIME DAYS DAYS RAIN AVG HI TIME DIR BAROM HUM
---------------------------------------------------------------------------------------
1 8.5 8.5 0:00 8.5 0:00 56 0 0.00 15 34 9:46 O681.03 81
2 8.5 8.5 0:00 8.5 0:00 56 0 0.00 11 27 10:59 NO681.03 81
3 8.5 8.5 0:00 8.5 0:00 56 0 0.00 4 13 0:00 NO681.03 81
4 8.5 8.5 0:00 8.5 0:00 56 0 0.00 3 13 13:15 ENE681.03 81
5 8.5 8.5 0:00 8.5 0:00 56 0 0.00 5 20 14:49 ENE681.03 81
6 9.5 10.5 11:39 8.5 0:00 55 0 0.00 3 13 15:43 NO681.03 82
7 10.5 10.5 0:00 10.5 0:00 41 0 0.00 9 27 16:54 NNO681.03 82
---------------------------------------------------------------------------------------
TOT 8.9 10.5 6/11/10 8.5 1/11/10 379 0 0.00 7 34 1/11/10 NO681.03 81
HEAT BASE: 65.0
COOL BASE: 65.0
Yearly Archive Report
Parameter Max Max Time Max Date Min Min Time Min Date Average Total Rain 330.00 19:47 31/10/10 0.00 0:00 1/1/10 191.38
Monthly Archive Report
Parameter Max Max Time Max Date Min Min Time Min Date Average Total Rain 330.00 0:00 1/11/10 330.00 0:00 1/11/10 330.00
Daily Archive Report
Parameter Max Max Time Min Min Time Average Total Rain 330.00 0:00 330.00 0:00 330.00
Daily Summary Report
Date Wind Dir Hi Lo Wind Spd Hi Lo Wind Gust Hi Lo Temp Hi Lo Tot Rain Hi Lo
° ° ° km/hr km/hr km/hr km/hr km/hr km/hr °C °C °C mm mm mm
Date Wind Dir Hi Lo Wind Spd Hi Lo Wind Gust Hi Lo Temp Hi Lo Tot Rain Hi Lo Solar Hi Lo Wind Chill Hi Lo
° ° ° km/hr km/hr km/hr km/hr km/hr km/hr °C °C °C mm mm mm W/sqm W/sqm W/sqm °C °C °C
20/12/2005 68 357 0 9 21 4 13 21 4 6.0 9.0 4.2 36.00 36.00 36.00 0 0 0 4.2 8.8 1.1
21/12/2005 68 357 0 8 21 0 12 21 4 4.8 10.4 0.2 36.00 36.00 36.00 0 0 0 3.0 9.8 -3.0
22/12/2005 68 357 0 7 22 0 12 22 0 2.6 9.8 -2.8 36.00 36.00 36.00 0 0 0 0.7 9.8 -5.6
Date Wind Dir Hi Lo Wind Spd Hi Lo Wind Gust Hi Lo Humidity Hi Lo Temp Hi Lo Wind Chill Hi Lo
° ° ° km/hr km/hr km/hr km/hr km/hr km/hr % % % °C °C °C °C °C °C
23/12/2005 68 357 0 7 18 0 11 18 0 84 98 50 4.0 10.6 -2.1 2.4 10.5 -4.6
24/12/2005 68 357 0 1 6 0 2 6 0 91 98 70 0.8 6.8 -4.3 0.6 6.8 -5.1
25/12/2005 315 353 0 3 20 0 5 20 0 86 98 57 4.4 12.0 -1.8 4.1 12.0 -3.4
26/12/2005 68 357 0 1 20 0 3 20 0 91 98 63 5.5 11.1 0.6 5.3 11.1 0.6
25/1/2006 90 357 0 10 21 4 17 21 8 65 72 53 4.2 6.3 3.3 1.8 5.6 -0.6
26/1/2006 68 357 0 6 21 0 10 21 0 78 98 48 3.7 10.5 -1.1 2.3 10.0 -3.1
27/1/2006 90 353 0 3 13 0 7 13 0 87 98 63 1.7 4.6 0.0 0.7 4.6 -3.2
28/1/2006 0 353 0 0 0 0 0 0 0 87 98 76 -3.4 0.0 -8.5 -3.4 0.0 -8.5
29/1/2006 0 357 0 0 0 0 0 0 0 82 98 69 -6.9 -0.1 -12.5 -6.9 -0.1 -12.5
30/1/2006 315 357 0 2 18 0 3 18 0 91 98 77 -4.4 1.3 -13.1 -5.1 1.1 -13.1
31/1/2006 315 357 0 8 20 0 13 20 0 91 98 75 2.2 4.7 0.5 -0.1 4.7 -4.3
1/2/2006 315 357 0 5 13 0 8 13 0 91 98 63 4.3 11.3 -0.9 3.3 11.2 -2.6
2/2/2006 338 357 0 2 12 0 5 12 0 89 98 54 4.6 13.2 -0.9 4.2 13.2 -2.8
3/2/2006 338 357 0 3 17 0 6 17 0 91 98 65 5.3 11.3 0.5 4.9 11.3 -0.8
4/2/2006 315 357 0 6 21 0 11 21 0 88 98 57 6.2 9.7 3.0 5.1 9.2 0.4
5/2/2006 90 357 0 1 9 0 3 9 0 83 98 47 3.3 11.4 -2.7 3.3 11.4 -5.3
6/2/2006 315 357 0 4 16 0 7 16 0 81 98 37 2.6 11.3 -2.1 1.8 11.0 -4.6
7/2/2006 315 357 0 2 12 0 5 12 0 72 98 36 3.2 12.1 -3.9 2.6 12.1 -6.5
8/2/2006 315 357 0 6 25 0 10 25 0 70 98 30 4.2 14.0 -3.7 3.1 14.0 -5.2
9/2/2006 315 357 0 5 14 0 9 14 0 63 94 26 5.2 16.0 -3.3 4.1 16.0 -6.4
10/2/2006 315 357 0 3 16 0 6 16 0 59 87 25 6.2 16.2 -0.8 6.1 16.2 -2.8
11/2/2006 90 357 0 3 14 0 7 14 0 73 98 39 8.6 16.8 3.2 8.3 16.8 0.3
12/2/2006 68 357 0 5 16 0 9 16 0 78 98 44 9.4 14.9 4.5 8.8 14.9 2.3
13/2/2006 315 357 0 8 27 0 12 27 0 68 98 33 7.6 17.0 0.9 6.4 17.0 -2.5
14/2/2006 338 357 0 2 14 0 5 14 0 67 94 33 7.7 18.2 0.0 7.6 18.2 -1.4
15/2/2006 315 357 0 10 31 0 15 31 0 64 98 27 8.7 17.2 1.6 7.5 17.2 -1.1
16/2/2006 292 357 0 17 41 4 27 41 6 78 96 52 8.3 12.3 4.8 5.8 11.3 0.9
17/2/2006 292 357 0 14 28 0 21 28 6 70 96 39 8.2 13.4 5.6 5.9 12.8 2.2
18/2/2006 270 357 0 14 39 0 23 39 0 71 95 47 8.8 12.6 4.6 6.7 11.7 1.6
19/2/2006 270 357 0 21 49 4 33 49 5 76 98 52 6.2 9.2 2.8 2.7 8.3 -3.0
20/2/2006 292 357 0 13 29 4 21 29 6 89 98 62 3.8 8.2 1.1 0.7 7.3 -3.0
21/2/2006 292 353 0 9 24 0 15 24 0 91 98 72 3.0 5.6 0.6 0.6 4.5 -3.6
Date Wind Dir Hi Lo Wind Spd Hi Lo Humidity Hi Lo Temp Hi Lo Wind Chill Hi Lo
° ° ° km/hr km/hr km/hr % % % °C °C °C °C °C °C
22/2/2006 90 357 0 4 14 0 85 98 45 4.0 10.4 0.1 3.3 10.4 -1.5
23/2/2006 315 357 0 8 24 0 92 98 69 2.1 5.8 -0.9 -0.1 4.5 -5.1
24/2/2006 292 357 0 13 35 0 80 98 40 2.2 8.5 -1.5 -1.1 7.0 -6.4
25/2/2006 270 357 0 10 38 0 71 94 48 4.0 9.7 -0.7 1.7 9.1 -5.8
26/2/2006 292 357 0 14 31 0 89 98 54 4.1 8.2 1.3 1.0 6.5 -4.1
27/2/2006 315 357 0 12 30 0 80 98 36 4.6 11.0 0.7 2.0 10.0 -5.3
1/3/2006 315 337 302 4 8 0 73 74 71 1.5 2.1 1.3 0.6 1.8 -1.2
2/3/2006 315 357 0 9 27 0 57 88 29 4.8 13.4 -3.0 2.9 13.3 -6.7
3/3/2006 315 357 0 11 35 0 67 87 48 6.0 10.8 0.7 4.1 9.6 -1.6
4/3/2006 270 357 0 16 39 4 79 97 48 9.0 15.7 5.6 6.8 15.2 1.7
5/3/2006 315 357 0 21 57 5 67 98 38 4.4 7.5 0.5 0.4 6.4 -5.3
6/3/2006 315 357 0 16 49 0 59 88 35 4.4 12.2 -1.4 1.0 10.8 -7.0
7/3/2006 315 357 0 10 30 0 64 91 37 6.9 16.1 -0.9 5.2 15.9 -4.9
8/3/2006 315 357 0 12 27 0 77 98 45 11.0 17.5 5.6 9.6 17.5 2.6
9/3/2006 315 357 0 12 39 0 77 98 35 11.0 19.5 4.6 9.8 19.5 2.2
10/3/2006 315 357 0 14 32 0 61 97 27 8.6 15.3 1.6 6.5 15.0 -1.7
Date Wind Dir Hi Lo Wind Spd Hi Lo Wind Gust Hi Lo Humidity Hi Lo Temp Hi Lo Wind Chill Hi Lo
° ° ° km/hr km/hr km/hr km/hr km/hr km/hr % % % °C °C °C °C °C °C
12/3/2006 315 357 0 7 17 0 12 17 4 55 66 47 10.5 12.7 8.0 9.8 12.6 6.7
13/3/2006 315 357 0 5 18 0 9 18 0 55 90 21 11.9 23.2 2.1 11.4 23.2 -0.3
14/3/2006 68 357 0 6 23 0 10 23 0 63 95 22 13.3 22.8 8.2 12.7 22.8 5.2
15/3/2006 315 357 0 4 18 0 7 18 0 57 97 21 12.5 23.8 2.7 12.4 23.8 1.8
16/3/2006 338 357 0 6 17 0 10 17 0 51 80 24 14.0 23.9 6.5 13.7 23.9 5.0
17/3/2006 90 357 0 9 26 0 16 26 4 75 96 48 11.5 17.0 7.4 10.7 17.0 5.5
18/3/2006 90 357 0 8 24 0 13 24 0 89 98 65 10.5 14.9 7.9 9.7 14.9 6.1
19/3/2006 270 357 0 9 24 0 16 24 0 80 98 46 10.7 15.1 7.1 9.8 15.1 4.5
20/3/2006 270 357 0 3 18 0 8 18 0 92 98 79 8.8 11.7 6.1 8.5 11.7 4.8
21/3/2006 270 357 0 8 27 0 13 27 0 81 98 44 9.9 16.2 5.8 9.1 16.2 4.6
22/3/2006 292 357 0 15 33 4 23 33 4 78 98 45 9.0 13.9 6.2 6.8 12.8 2.8
23/3/2006 270 357 0 12 40 0 20 40 6 76 98 46 11.2 16.5 6.3 9.9 16.5 3.3
26/3/2006 270 343 0 5 10 0 8 10 0 46 56 39 16.0 18.4 14.5 16.0 18.4 14.2
27/3/2006 338 357 0 6 24 0 11 24 0 52 80 25 16.5 26.0 9.6 16.5 26.0 9.3
28/3/2006 315 357 0 12 30 4 20 30 6 58 95 26 13.3 20.3 7.8 12.3 20.3 5.0
29/3/2006 315 357 0 8 27 0 13 27 0 57 88 27 11.8 20.6 3.6 11.2 20.6 0.9
30/3/2006 292 357 0 3 14 0 7 14 0 59 88 31 16.3 25.3 9.1 16.3 25.3 8.3
31/3/2006 315 357 0 6 18 0 10 18 0 49 77 21 17.2 27.1 10.1 17.1 27.1 8.6
1/4/2006 315 357 0 9 27 0 15 27 0 47 68 24 15.9 25.6 7.8 15.7 25.6 6.6
2/4/2006 315 357 0 5 18 0 9 18 0 52 86 23 14.4 23.5 5.8 14.2 23.5 4.9
3/4/2006 68 357 0 7 23 0 12 23 0 45 70 24 16.4 27.5 9.2 16.3 27.5 8.1
4/4/2006 68 357 0 12 30 0 20 30 0 44 74 24 17.1 25.7 10.3 16.6 25.7 8.1
13/4/2006 68 357 1 6 16 0 11 16 0 41 77 21 18.6 24.7 13.2 18.5 24.7 12.2
14/4/2006 68 357 0 10 32 0 17 32 0 61 98 25 15.8 26.6 8.6 15.2 26.6 6.5
15/4/2006 292 357 0 8 32 0 15 32 0 82 98 32 14.4 24.3 9.6 14.0 24.3 9.0
16/4/2006 315 357 0 3 31 0 7 31 0 75 98 35 13.4 23.5 6.2 13.4 23.5 5.7
17/4/2006 315 357 0 6 32 0 12 32 0 88 98 52 11.0 15.4 9.3 10.5 15.4 7.2
18/4/2006 315 357 0 5 14 0 9 14 0 74 98 33 12.1 23.5 3.7 11.8 23.5 1.1
19/4/2006 315 357 0 5 21 0 10 21 0 64 98 25 14.9 26.6 8.2 14.9 26.6 7.3
20/4/2006 315 357 0 8 22 0 13 22 0 57 91 25 15.3 26.3 8.0 15.1 26.3 6.0
21/4/2006 270 357 0 6 26 0 12 26 0 62 89 33 14.8 22.8 8.6 14.7 22.8 7.5
22/4/2006 68 357 0 10 36 0 16 36 0 84 98 39 14.0 24.0 9.6 13.6 24.0 8.3
23/4/2006 68 357 0 11 35 0 19 35 0 79 98 45 13.9 20.8 10.7 13.3 20.8 8.9
24/4/2006 90 357 0 9 39 0 15 39 0 57 94 25 15.0 25.2 7.3 14.7 25.2 6.7
25/4/2006 68 357 0 5 22 0 9 22 0 49 86 21 16.7 28.3 8.1 16.6 28.3 7.5
26/4/2006 68 357 0 3 14 0 7 14 0 46 83 20 17.7 31.2 7.5 17.7 31.2 7.5
27/4/2006 315 357 0 6 24 0 11 24 0 53 92 18 19.3 32.3 9.7 19.3 32.3 9.7
28/4/2006 90 357 0 6 27 0 12 27 0 55 82 19 17.4 31.9 10.1 17.3 31.9 9.5
29/4/2006 315 357 0 6 21 0 11 21 0 50 86 20 15.4 27.3 6.4 15.3 27.3 5.9
30/4/2006 315 357 0 3 24 0 7 24 0 49 81 18 17.2 32.2 6.3 17.2 32.2 6.0
1/5/2006 68 357 0 8 21 0 14 21 0 63 96 30 18.7 29.8 11.9 18.4 29.8 10.4
2/5/2006 68 357 0 10 28 0 17 28 4 55 95 20 18.6 31.4 10.5 18.3 31.4 8.9
3/5/2006 90 357 0 11 28 0 18 28 4 73 98 44 15.0 20.8 12.1 14.5 20.8 9.9
4/5/2006 90 357 0 3 16 0 7 16 0 74 98 48 14.0 17.9 10.6 14.0 17.9 10.2
5/5/2006 90 357 0 4 21 0 8 21 0 82 98 43 14.7 22.5 11.0 14.7 22.5 11.0
6/5/2006 68 357 0 5 17 0 10 17 0 71 98 33 16.4 25.4 9.9 16.3 25.4 8.8
7/5/2006 68 357 0 4 23 0 10 23 0 67 98 23 18.1 29.1 11.3 18.1 29.1 11.0
8/5/2006 315 357 0 9 26 0 14 26 0 47 77 20 17.1 25.9 9.9 16.7 25.9 8.4
9/5/2006 68 357 0 8 26 0 15 26 0 53 84 25 17.9 30.2 11.4 17.7 30.2 10.4
10/5/2006 68 357 0 8 21 0 14 21 0 63 98 18 19.8 34.9 12.5 19.6 34.9 11.2
11/5/2006 68 357 0 12 30 0 20 30 4 60 97 24 17.0 25.4 11.8 16.7 25.4 9.8
12/5/2006 68 357 0 7 21 0 12 21 0 56 97 19 19.7 35.7 10.3 19.5 35.7 9.1
13/5/2006 90 357 0 7 22 0 13 22 0 51 82 21 21.3 35.8 12.7 21.1 35.8 11.4
14/5/2006 68 357 0 11 28 0 19 28 6 52 94 26 20.4 31.7 12.6 20.2 31.7 11.3
15/5/2006 90 357 0 6 23 0 12 23 0 45 65 21 23.7 35.4 15.2 23.7 35.4 14.9
16/5/2006 68 357 0 7 23 0 13 23 0 43 62 18 24.7 38.3 15.2 24.7 38.3 14.5
17/5/2006 68 357 0 8 24 0 12 24 0 43 73 15 27.8 38.6 18.9 27.8 38.6 18.9
18/5/2006 315 357 0 7 33 0 14 33 0 37 57 25 25.5 32.3 19.8 25.5 32.3 19.8
19/5/2006 315 357 0 7 25 0 13 25 0 32 57 11 23.7 35.6 14.9 23.7 35.6 14.4
20/5/2006 315 357 0 8 27 0 14 27 0 28 41 15 21.5 31.6 13.4 21.5 31.6 12.5
21/5/2006 315 357 0 6 27 0 12 27 0 32 55 13 22.0 33.4 12.7 22.0 33.4 12.0
22/5/2006 292 357 0 11 34 0 18 34 0 34 63 20 19.4 25.8 13.0 19.3 25.8 12.1
23/5/2006 315 357 0 10 29 0 16 29 0 35 63 16 17.8 29.2 9.3 17.5 29.2 7.8
24/5/2006 90 357 0 5 22 0 10 22 0 41 70 14 18.8 33.3 9.8 18.7 33.3 8.6
25/5/2006 90 357 0 7 24 0 13 24 0 34 65 16 19.3 29.7 10.3 19.2 29.7 9.9
26/5/2006 90 357 0 8 25 0 14 25 0 28 44 18 21.3 31.8 14.8 21.3 31.8 14.2
27/5/2006 68 357 0 8 25 0 14 25 0 35 51 20 22.5 32.8 14.5 22.5 32.8 14.2
28/5/2006 68 357 0 7 28 0 13 28 0 35 52 18 25.2 36.0 17.1 25.2 36.0 17.1
29/5/2006 90 357 0 8 25 0 14 25 0 41 79 15 25.4 38.3 18.6 25.4 38.3 18.6
30/5/2006 90 357 0 5 18 0 10 18 0 78 98 41 20.4 28.7 15.9 20.4 28.7 15.1
31/5/2006 90 357 0 7 24 0 13 24 0 92 98 72 15.5 17.3 12.6 15.2 17.3 11.2
2/6/2006 338 357 0 11 27 0 19 27 6 24 39 15 26.7 33.2 17.7 26.7 33.2 17.7
3/6/2006 68 357 0 9 25 0 15 25 4 50 85 25 19.0 30.1 12.4 18.8 30.1 10.8
4/6/2006 68 357 0 8 23 0 14 23 0 47 84 15 19.9 32.5 11.9 19.8 32.5 10.7
5/6/2006 68 357 0 6 21 0 11 21 0 32 61 11 22.1 36.6 11.3 22.1 36.6 11.3
6/6/2006 68 357 0 10 28 0 19 28 4 31 55 16 22.7 34.7 13.7 22.6 34.7 12.8
8/6/2006 68 357 24 5 16 4 9 16 5 52 63 52 22.6 22.6 21.6 22.6 22.6 21.6
9/6/2006 90 357 0 11 39 0 19 39 0 43 78 20 23.3 30.0 18.0 23.3 30.0 17.9
10/6/2006 90 357 0 10 28 0 16 28 4 47 74 24 23.1 33.2 15.8 23.1 33.2 15.6
11/6/2006 68 357 0 9 28 0 16 28 4 46 74 23 23.0 33.0 15.2 23.0 33.0 14.9
13/6/2006 90 357 0 16 32 5 26 32 10 30 49 23 25.2 31.5 18.0 25.2 31.5 17.4
14/6/2006 90 357 0 13 32 4 23 32 5 56 80 30 21.0 31.0 15.3 20.8 31.0 13.7
15/6/2006 90 357 0 7 21 0 12 21 0 61 96 27 21.5 33.4 15.6 21.4 33.4 14.9
16/6/2006 338 357 0 3 29 0 8 29 0 80 98 32 19.2 30.2 14.1 19.2 30.2 13.9
17/6/2006 315 357 0 4 21 0 9 21 0 80 98 44 18.7 25.0 14.5 18.7 25.0 14.2
18/6/2006 90 357 0 4 16 0 8 16 0 67 98 20 21.7 34.8 12.6 21.7 34.8 12.5
19/6/2006 90 357 0 7 24 0 11 24 0 52 88 18 25.4 37.9 17.5 25.4 37.9 17.5
20/6/2006 90 357 0 6 39 0 11 39 0 47 70 21 24.6 35.8 18.4 24.6 35.8 18.4
21/6/2006 90 357 0 4 15 0 8 15 0 45 79 15 26.9 40.4 17.5 26.9 40.4 17.5
22/6/2006 68 357 0 6 20 0 11 20 0 40 68 15 29.2 41.3 20.3 29.1 41.3 20.3
23/6/2006 90 357 0 9 26 0 16 26 0 35 61 15 28.3 38.5 20.2 28.3 38.5 20.2
24/6/2006 90 357 0 8 28 0 15 28 0 38 72 17 27.5 37.4 19.6 27.5 37.4 19.6
25/6/2006 292 357 0 11 25 0 18 25 0 40 74 17 25.8 36.8 18.2 25.8 36.8 18.2
26/6/2006 68 357 0 5 26 0 11 26 0 37 54 16 26.4 39.1 18.3 26.4 39.1 18.3
27/6/2006 90 357 0 5 21 0 10 21 0 55 86 21 25.3 36.0 18.4 25.3 36.0 18.4
28/6/2006 315 357 0 7 23 0 13 23 0 47 80 16 26.1 37.4 19.1 26.1 37.4 19.1
29/6/2006 315 357 0 6 20 0 11 20 0 39 65 14 27.0 40.6 18.3 27.0 40.6 18.3
30/6/2006 68 357 0 8 25 0 15 25 4 36 68 15 27.7 39.7 19.9 27.7 39.7 19.9
1/7/2006 68 357 0 6 20 0 11 20 0 36 63 15 27.6 39.6 19.0 27.6 39.6 19.0
2/7/2006 292 357 0 7 37 0 14 37 0 31 58 9 28.0 39.7 19.1 28.0 39.7 19.1
3/7/2006 315 357 0 8 21 0 14 21 0 29 56 15 27.0 38.3 17.9 27.0 38.3 17.9
4/7/2006 270 357 0 7 32 0 13 32 0 23 38 9 27.8 39.0 19.0 27.8 39.0 19.0
5/7/2006 315 357 0 9 24 0 14 24 0 27 46 16 26.4 37.2 17.6 26.4 37.2 17.6
6/7/2006 315 357 0 5 26 0 10 26 0 30 59 13 27.1 38.6 17.9 27.0 38.6 17.9
7/7/2006 90 357 0 7 26 0 13 26 0 46 77 14 28.0 40.4 19.9 28.0 40.4 19.9
8/7/2006 90 357 0 8 27 0 16 27 0 49 81 17 27.6 38.9 19.6 27.6 38.9 19.6
9/7/2006 90 357 0 6 21 0 12 21 0 37 67 13 29.4 42.7 19.7 29.4 42.7 19.7
10/7/2006 68 357 0 6 17 0 10 17 0 26 47 10 31.1 44.2 21.9 31.1 44.2 21.9
11/7/2006 90 357 0 7 25 0 12 25 0 26 44 11 29.9 41.1 20.7 29.9 41.1 20.7
12/7/2006 90 357 0 8 23 0 14 23 4 28 42 17 29.0 37.6 23.6 29.0 37.6 23.6
13/7/2006 68 357 0 8 27 0 14 27 4 31 52 15 28.4 39.2 20.5 28.4 39.2 20.5
14/7/2006 68 357 0 8 30 0 16 30 4 42 83 15 28.0 38.1 20.4 28.0 38.1 20.4
15/7/2006 90 357 0 8 27 0 15 27 0 35 65 16 27.6 37.2 20.1 27.6 37.2 20.1
16/7/2006 90 357 0 8 20 0 13 20 4 56 85 20 24.3 34.9 19.7 24.3 34.9 19.7
17/7/2006 90 357 0 8 25 0 13 25 0 42 72 14 28.7 41.4 20.9 28.7 41.4 20.9
18/7/2006 90 357 0 8 27 0 15 27 0 44 76 17 28.0 37.8 20.7 28.0 37.8 20.7
19/7/2006 90 357 0 11 34 0 19 34 0 45 80 20 26.9 34.3 20.8 26.9 34.3 20.8
20/7/2006 90 357 0 8 23 0 15 23 4 59 90 17 24.9 36.1 19.6 24.9 36.1 19.6
21/7/2006 90 357 0 7 24 0 13 24 0 35 70 10 29.8 43.0 20.1 29.7 43.0 20.1
22/7/2006 315 357 0 7 24 0 12 24 0 25 52 9 28.9 41.6 20.1 28.9 41.6 20.1
23/7/2006 90 357 0 5 21 0 10 21 0 27 60 10 29.2 43.0 18.4 29.2 43.0 18.4
24/7/2006 90 357 0 7 21 0 12 21 0 43 84 10 29.7 43.3 20.4 29.6 43.3 20.4
25/7/2006 68 357 0 5 21 0 10 21 0 32 60 11 29.8 42.5 21.4 29.8 42.5 21.4
26/7/2006 90 357 0 9 25 0 15 25 4 27 44 9 29.8 40.7 21.0 29.8 40.7 21.0
27/7/2006 90 357 0 7 37 0 14 37 0 38 74 10 28.3 38.4 21.7 28.3 38.4 21.7
28/7/2006 315 357 0 8 28 0 13 28 0 22 35 12 27.0 38.5 18.4 27.0 38.5 18.4
29/7/2006 90 357 0 6 21 0 12 21 0 37 77 11 28.8 41.2 20.3 28.7 41.2 20.3
30/7/2006 90 357 0 5 21 0 11 21 0 36 74 9 30.4 43.0 21.2 30.3 43.0 21.2
31/7/2006 315 357 0 8 32 0 14 32 0 19 25 11 30.4 41.5 21.2 30.4 41.5 21.2
1/8/2006 315 357 0 8 27 0 13 27 0 24 37 14 29.9 41.3 20.8 29.9 41.3 20.8
2/8/2006 90 357 0 8 26 0 14 26 0 35 63 11 30.4 41.6 21.5 30.4 41.6 21.5
3/8/2006 338 357 0 8 29 0 14 29 0 40 76 14 30.7 41.1 22.8 30.7 41.1 22.8
4/8/2006 90 357 0 6 21 0 12 21 0 27 42 14 27.5 38.5 19.6 27.5 38.5 19.6
5/8/2006 90 357 0 7 22 0 12 22 0 36 71 12 27.9 39.4 20.4 27.9 39.4 20.4
6/8/2006 90 357 0 6 24 0 12 24 0 36 62 15 27.8 39.0 20.6 27.8 39.0 20.6
7/8/2006 90 357 0 7 24 0 14 24 0 44 80 14 28.2 40.3 19.4 28.2 40.3 19.4
8/8/2006 90 357 0 8 25 0 14 25 0 45 68 16 26.5 37.7 20.4 26.5 37.7 20.4
9/8/2006 0 357 0 4 16 0 8 16 0 42 74 16 26.0 37.1 18.4 26.0 37.1 18.4
10/8/2006 90 357 0 6 18 0 10 18 0 40 71 15 27.4 38.8 18.9 27.4 38.8 18.9
11/8/2006 90 357 0 7 29 0 13 29 0 36 64 12 28.4 40.1 19.5 28.4 40.1 19.5
12/8/2006 90 357 0 9 36 0 16 36 0 41 82 12 27.9 38.4 18.3 27.9 38.4 18.3
13/8/2006 90 357 0 6 26 0 12 26 0 34 61 14 24.7 35.6 16.1 24.7 35.6 16.1
14/8/2006 90 357 0 8 27 0 13 27 0 41 80 13 26.2 36.7 17.9 26.2 36.7 17.9
15/8/2006 270 357 0 9 36 0 16 36 0 34 75 18 24.6 32.0 18.6 24.6 32.0 18.6
16/8/2006 270 357 0 14 40 0 24 40 0 43 77 22 21.1 27.5 15.7 21.1 27.5 14.6
17/8/2006 270 357 0 9 26 0 16 26 0 71 93 40 17.5 20.9 15.3 17.4 20.9 14.9
18/8/2006 270 357 0 5 26 0 10 26 0 62 98 20 19.5 29.9 13.4 19.5 29.9 13.3
19/8/2006 315 357 0 5 17 0 9 17 0 49 85 20 20.2 30.6 11.8 20.2 30.6 11.8
20/8/2006 90 357 0 5 21 0 10 21 0 41 74 19 23.5 34.1 13.9 23.5 34.1 13.9
21/8/2006 90 357 0 8 28 0 15 28 4 50 90 21 23.7 32.7 16.1 23.7 32.7 15.8
22/8/2006 90 357 0 9 25 0 15 25 4 40 75 17 24.6 33.7 17.0 24.6 33.7 16.7
23/8/2006 90 357 0 7 21 0 12 21 0 39 69 16 26.5 37.8 17.9 26.5 37.8 17.9
24/8/2006 90 357 0 7 28 0 12 28 0 38 62 16 26.7 36.7 19.1 26.7 36.7 19.1
25/8/2006 90 357 0 7 30 0 13 30 0 45 81 18 25.6 35.0 18.5 25.6 35.0 18.5
26/8/2006 315 357 0 6 27 0 11 27 0 33 57 14 25.2 34.7 19.1 25.2 34.7 19.1
27/8/2006 315 357 0 5 21 0 10 21 0 37 62 18 25.1 34.6 16.8 25.1 34.6 16.8
28/8/2006 315 357 0 5 22 0 9 22 0 41 73 17 26.4 36.4 17.7 26.4 36.4 17.7
29/8/2006 315 357 0 6 25 0 11 25 0 31 54 14 27.3 37.5 18.4 27.3 37.5 18.4
30/8/2006 90 357 0 5 27 0 10 27 0 34 53 13 26.4 36.8 17.6 26.4 36.8 17.6
31/8/2006 90 357 0 10 28 0 17 28 4 56 87 27 24.4 32.5 18.9 24.4 32.5 18.9
1/9/2006 90 357 0 6 24 0 12 24 0 43 80 13 26.6 37.9 17.6 26.6 37.9 17.6
2/9/2006 90 357 0 6 27 0 10 27 0 46 84 15 27.5 38.5 19.1 27.5 38.5 19.1
3/9/2006 90 357 0 6 18 0 11 18 0 50 87 16 27.5 37.7 20.4 27.5 37.7 20.4
4/9/2006 90 357 0 8 25 0 15 25 4 42 81 16 27.1 36.9 19.3 27.1 36.9 19.3
5/9/2006 90 357 0 7 21 0 12 21 0 39 56 19 26.0 35.2 19.7 26.0 35.2 19.7
6/9/2006 90 357 0 7 26 0 13 26 0 47 79 19 25.0 32.9 19.0 25.0 32.9 19.0
7/9/2006 90 357 0 5 18 0 10 18 0 41 70 18 24.9 33.6 17.9 24.9 33.6 17.9
8/9/2006 90 357 0 5 21 0 10 21 0 44 74 17 26.3 35.5 18.8 26.3 35.5 18.8
9/9/2006 90 357 0 6 27 0 12 27 0 51 78 21 25.0 33.4 19.6 25.0 33.4 19.6
10/9/2006 90 357 0 4 18 0 8 18 0 61 89 27 23.1 32.0 16.8 23.1 32.0 16.8
11/9/2006 90 357 0 7 21 0 13 21 0 60 87 25 23.5 31.8 18.8 23.5 31.8 18.8
12/9/2006 90 357 0 6 21 0 11 21 0 63 88 33 20.1 24.8 17.5 20.1 24.8 17.5
13/9/2006 315 357 0 5 25 0 11 25 0 58 97 20 21.0 29.9 14.1 21.0 29.9 14.1
14/9/2006 315 357 0 8 32 0 14 32 0 83 98 46 16.3 21.2 12.7 16.2 21.2 11.4
15/9/2006 315 357 0 12 35 0 20 35 5 71 98 35 14.8 20.7 10.7 14.1 20.7 8.8
16/9/2006 315 357 0 10 41 0 16 41 0 62 98 27 15.7 22.7 9.4 15.2 22.7 7.4
17/9/2006 315 357 0 8 21 0 12 21 0 50 90 22 17.8 26.5 10.0 17.6 26.5 8.5
18/9/2006 338 357 0 6 23 0 10 23 0 44 71 23 20.1 28.8 13.4 20.1 28.8 13.3
19/9/2006 90 357 0 3 15 0 6 15 0 46 76 20 21.1 30.6 12.7 21.1 30.6 12.7
20/9/2006 90 357 0 7 24 0 13 24 0 54 89 21 21.0 29.2 15.4 21.0 29.2 15.1
21/9/2006 90 357 0 11 36 0 19 36 0 68 95 43 19.4 24.5 15.1 19.4 24.5 14.1
22/9/2006 338 357 0 7 23 0 12 23 0 70 98 35 19.1 24.9 14.2 19.1 24.9 14.1
23/9/2006 270 357 0 5 23 0 10 23 0 54 85 24 19.2 22.9 14.7 19.2 22.9 14.2
24/9/2006 292 357 0 9 32 0 15 32 0 60 92 33 17.4 23.2 11.9 17.4 23.2 11.5
25/9/2006 315 357 0 15 33 0 23 33 0 56 93 32 19.0 25.0 14.0 18.7 25.0 12.6
26/9/2006 315 357 0 9 25 0 14 25 0 45 76 21 18.8 27.1 11.4 18.7 27.1 10.3
27/9/2006 315 357 0 7 24 0 11 24 0 40 66 20 19.9 29.4 11.4 19.8 29.4 10.4
28/9/2006 315 357 0 9 25 0 14 25 0 53 85 30 20.4 26.8 15.9 20.4 26.8 15.9
29/9/2006 315 357 0 7 22 0 12 22 0 55 85 30 19.9 27.7 13.4 19.9 27.7 13.0
30/9/2006 315 357 0 5 21 0 9 21 0 45 67 24 20.6 29.4 14.0 20.6 29.4 14.0
1/10/2006 315 357 0 6 19 0 10 19 0 51 84 29 21.0 28.4 14.7 21.0 28.4 14.2
2/10/2006 68 357 0 9 39 0 15 39 0 44 74 18 23.5 32.7 16.2 23.5 32.7 16.2
3/10/2006 270 357 0 16 39 4 25 39 6 41 88 25 20.7 24.2 15.3 20.7 24.2 14.5
4/10/2006 315 357 0 12 29 4 19 29 4 52 83 33 15.4 20.5 11.0 14.9 20.5 8.9
5/10/2006 315 357 0 9 22 0 13 22 4 48 77 24 14.9 23.0 7.9 14.5 23.0 5.7
6/10/2006 315 357 0 4 18 0 8 18 0 43 70 21 16.1 25.0 7.8 16.1 25.0 7.8
7/10/2006 338 357 0 5 14 0 8 14 0 38 50 27 19.1 26.8 12.3 19.1 26.8 11.7
8/10/2006 68 357 0 8 24 0 13 24 0 45 71 23 20.0 27.3 14.0 20.0 27.3 13.5
9/10/2006 90 357 0 9 21 0 15 21 4 63 91 29 19.3 26.1 14.5 19.3 26.1 13.6
10/10/2006 90 357 0 7 22 0 14 22 0 67 92 36 18.8 24.5 14.7 18.8 24.5 13.9
12/10/2006 68 357 0 5 15 0 10 15 0 30 52 25 19.4 22.5 14.6 19.4 22.5 13.9
13/10/2006 90 357 0 6 14 0 9 14 0 53 86 27 15.6 22.9 8.7 15.4 22.9 8.3
17/10/2006 68 357 0 8 26 0 16 26 0 59 79 47 18.7 20.7 16.9 18.7 20.7 16.6
18/10/2006 45 357 0 7 41 0 14 41 0 78 92 37 16.5 22.4 13.5 16.4 22.4 12.5
19/10/2006 270 357 0 9 32 0 17 32 0 78 96 47 14.8 19.0 12.0 14.6 19.0 11.3
20/10/2006 270 357 0 13 40 0 22 40 4 85 98 62 15.3 18.6 12.0 14.8 18.6 11.7
21/10/2006 292 357 0 10 31 0 15 31 0 82 98 50 15.9 19.2 13.6 15.7 19.2 13.4
22/10/2006 270 357 0 9 38 0 16 38 0 75 97 45 16.4 22.1 11.7 16.4 22.1 10.7
23/10/2006 270 357 0 11 37 0 19 37 4 79 96 49 17.2 21.2 15.0 17.1 21.2 13.6
24/10/2006 270 357 0 6 23 0 11 23 0 81 98 49 16.9 22.3 13.0 16.7 22.3 12.9
25/10/2006 90 357 0 7 38 0 13 38 0 70 95 35 17.9 23.9 13.7 17.7 23.9 12.4
26/10/2006 90 357 0 3 27 0 7 27 0 79 97 49 16.6 20.5 13.9 16.6 20.5 13.6
27/10/2006 90 357 0 7 24 0 13 24 0 82 97 47 16.7 22.0 13.0 16.6 22.0 12.9
29/10/2006 90 353 4 1 5 0 1 5 0 45 52 37 16.8 18.3 15.1 16.8 18.3 15.1
30/10/2006 315 357 0 2 12 0 5 12 0 50 76 21 16.3 25.8 8.0 16.3 25.8 7.5
31/10/2006 338 357 0 7 25 0 11 25 0 54 80 31 17.3 24.2 11.4 17.2 24.2 10.9
1/11/2006 338 357 0 4 18 0 7 18 0 64 83 32 15.7 23.4 10.5 15.7 23.4 10.5
2/11/2006 338 357 0 5 17 0 9 17 0 82 98 39 15.2 20.6 12.1 15.2 20.6 11.6
3/11/2006 90 357 0 10 21 0 17 21 5 98 98 95 11.9 14.2 10.6 11.0 14.2 8.4
4/11/2006 90 357 0 2 20 0 4 20 0 98 98 97 11.6 13.0 10.5 11.3 13.0 8.2
5/11/2006 90 357 0 3 20 0 5 20 0 94 98 72 11.3 14.6 9.5 11.1 14.6 8.0
6/11/2006 90 357 0 6 20 0 10 20 0 91 98 64 11.4 15.3 8.2 11.1 15.3 7.2
7/11/2006 90 357 0 10 26 4 16 26 5 97 98 87 12.5 14.1 11.6 11.7 14.1 9.6
8/11/2006 90 349 0 10 29 4 14 29 5 97 98 89 13.4 16.2 11.7 12.7 16.1 9.0
9/11/2006 90 357 0 6 16 0 10 16 0 85 98 52 12.7 17.4 9.6 12.4 17.4 8.3
10/11/2006 90 357 0 2 13 0 5 13 0 88 98 58 11.9 16.8 8.8 11.9 16.8 8.3
11/11/2006 90 353 0 3 10 0 4 10 0 83 93 67 10.0 13.2 8.0 9.8 13.2 6.6
12/11/2006 315 357 0 9 18 4 13 18 4 82 98 46 10.1 17.7 4.4 9.1 17.7 1.3
13/11/2006 315 357 0 6 19 0 9 19 0 73 98 36 9.9 16.8 4.6 9.3 16.8 2.4
14/11/2006 90 357 0 3 14 0 6 14 0 74 96 40 9.3 17.3 3.0 9.3 17.3 2.5
15/11/2006 90 357 0 6 14 0 10 14 0 84 98 50 10.3 16.3 6.2 9.8 16.3 4.0
16/11/2006 45 357 0 7 26 0 13 26 0 85 98 62 12.1 15.1 10.1 11.6 15.0 7.9
17/11/2006 315 357 0 9 27 0 14 27 0 77 98 38 9.6 13.8 5.3 8.5 13.1 3.3
18/11/2006 315 357 0 6 23 0 10 23 0 76 91 52 9.4 15.5 4.7 8.9 15.4 2.9
19/11/2006 315 357 0 3 14 0 5 14 0 81 98 48 9.0 16.3 2.9 8.9 16.3 2.9
20/11/2006 315 357 0 9 26 0 14 26 4 86 98 64 9.8 14.4 5.8 8.9 14.2 3.6
21/11/2006 292 357 0 14 36 0 21 36 4 86 98 60 10.3 14.3 6.8 8.7 13.4 3.9
22/11/2006 292 357 0 16 35 4 25 35 9 80 90 58 12.2 15.9 10.4 10.6 15.8 7.4
23/11/2006 270 357 0 13 32 0 20 32 5 77 88 47 11.6 16.0 9.9 10.3 15.9 7.7
24/11/2006 225 357 0 8 36 0 16 36 0 70 95 46 13.2 17.5 8.8 12.9 17.5 7.8
25/11/2006 315 357 0 6 21 0 11 21 0 72 98 51 11.6 14.0 9.6 11.1 14.0 8.2
26/11/2006 315 353 0 2 12 0 5 12 0 95 98 75 9.7 12.2 6.5 9.6 12.2 5.4
27/11/2006 68 357 0 2 9 0 5 9 0 87 98 55 7.6 12.8 3.3 7.5 12.8 2.7
28/11/2006 315 357 0 2 10 0 4 10 0 90 98 68 7.2 11.6 3.6 7.1 11.6 2.7
29/11/2006 315 353 0 5 15 0 7 15 0 85 98 55 7.7 14.1 2.0 7.0 14.1 0.3
30/11/2006 90 118 15 3 12 0 4 12 0 93 98 74 7.7 12.6 4.6 7.5 12.6 4.2
1/12/2006 90 357 0 5 14 0 9 14 0 93 98 73 8.9 13.1 5.4 8.4 13.1 3.8
2/12/2006 90 357 0 3 10 0 7 10 0 90 98 63 9.7 13.5 6.7 9.5 13.5 5.9
3/12/2006 315 357 0 8 24 0 14 24 0 92 98 69 9.0 11.0 7.9 7.8 10.5 5.0
5/12/2006 292 353 0 22 40 12 37 40 20 89 98 75 8.1 8.8 6.9 4.8 6.5 3.2
6/12/2006 315 357 0 18 41 4 26 41 6 82 98 52 6.6 10.1 3.8 3.5 8.3 -1.2
7/12/2006 292 357 0 13 30 0 21 30 0 87 98 67 6.9 10.6 2.1 4.5 9.3 -2.0
8/12/2006 270 357 0 18 49 4 28 49 8 78 96 48 8.7 12.1 3.8 6.1 10.7 -1.1
9/12/2006 315 357 0 13 31 0 19 31 4 81 97 52 3.8 7.8 0.7 0.8 6.3 -2.9
10/12/2006 90 357 0 6 16 0 10 16 0 77 98 42 3.4 9.3 -0.7 1.9 9.3 -4.2
11/12/2006 90 357 0 5 13 0 8 13 0 76 92 60 5.3 9.0 -0.9 4.4 9.0 -2.6
12/12/2006 90 175 38 3 10 0 6 10 0 77 94 49 6.0 10.5 3.7 5.4 10.5 1.3
13/12/2006 90 357 0 2 13 0 5 13 0 73 95 43 6.0 11.0 2.3 5.7 11.0 0.7
14/12/2006 90 346 38 2 10 0 5 10 0 77 98 48 4.3 10.4 1.0 4.0 10.3 -0.8
15/12/2006 90 357 0 1 8 0 3 8 0 68 83 49 5.3 11.2 1.2 5.2 11.2 -0.4
16/12/2006 315 353 0 6 17 0 8 17 0 75 96 43 5.4 12.5 0.4 4.4 12.4 -2.0
17/12/2006 315 357 0 10 22 4 14 22 4 82 98 46 4.5 11.1 -0.4 2.3 10.2 -3.8
18/12/2006 315 357 0 11 28 0 16 28 4 75 98 31 5.2 10.0 0.3 2.9 9.2 -3.8
19/12/2006 315 357 0 8 18 0 12 18 0 64 89 38 2.0 7.9 -2.8 -0.3 7.6 -7.9
20/12/2006 315 353 116 7 14 0 11 14 4 64 76 49 2.0 3.9 0.3 -0.1 3.0 -2.2
21/12/2006 315 353 0 6 17 0 10 17 0 66 87 37 2.4 9.5 -2.2 0.7 9.4 -6.7
22/12/2006 90 357 0 1 10 0 3 10 0 66 87 38 1.0 7.1 -5.1 0.8 7.1 -5.5
23/12/2006 90 357 4 7 20 0 11 20 0 89 98 71 3.7 6.8 1.1 1.9 6.7 -2.4
24/12/2006 315 357 0 5 13 0 8 13 0 74 96 40 3.1 9.5 -1.9 1.8 9.2 -5.7
25/12/2006 315 357 0 3 13 0 5 13 0 63 90 31 3.0 10.0 -2.3 2.2 10.0 -5.0
26/12/2006 90 126 0 3 11 0 3 11 0 61 80 35 3.5 11.2 -2.6 3.1 11.1 -2.6
27/12/2006 90 357 0 5 12 0 6 12 0 56 80 30 4.0 11.4 -1.9 3.1 11.4 -3.4
28/12/2006 90 357 0 5 15 0 7 15 0 70 93 54 3.7 10.0 -2.2 2.5 10.0 -4.2
29/12/2006 68 357 0 5 14 0 6 14 0 83 98 46 4.5 10.9 1.4 3.5 10.9 -0.2
30/12/2006 338 357 0 5 20 0 8 20 0 72 93 41 6.2 14.0 -0.8 5.5 13.5 -2.9
31/12/2006 315 357 0 7 21 0 9 21 0 81 98 58 8.0 13.6 4.1 7.0 13.6 2.8
1/1/2007 315 357 0 12 23 5 17 23 5 93 98 79 7.2 9.5 5.1 5.0 8.1 1.3
2/1/2007 315 357 0 9 20 0 12 20 0 77 98 46 7.7 13.3 3.1 6.0 13.2 0.5
3/1/2007 315 357 0 8 17 0 11 17 4 67 98 26 6.1 15.0 0.8 4.4 15.0 -3.3
4/1/2007 338 357 0 8 23 0 12 23 0 58 87 28 6.5 14.4 0.0 5.1 13.8 -1.9
5/1/2007 315 357 0 10 23 4 14 23 5 77 98 40 5.6 12.5 0.9 3.6 11.9 -2.5
6/1/2007 315 357 0 8 18 4 12 18 4 84 98 51 5.0 12.5 0.3 3.2 12.5 -3.5
7/1/2007 315 357 0 9 18 4 12 18 5 88 98 50 4.8 11.9 0.2 2.8 10.9 -3.8
8/1/2007 315 357 0 10 25 0 15 25 0 93 98 75 5.3 9.2 2.2 3.3 8.7 -2.2
9/1/2007 315 357 0 3 16 0 7 16 0 98 98 95 4.1 7.0 1.5 3.4 7.0 -0.9
12/1/2007 0 317 317 0 0 0 0 0 0 0 74 74 0.0 2.8 2.8 0.0 2.8 2.8
13/1/2007 338 357 0 1 11 0 3 11 0 66 88 35 4.7 14.3 -2.7 4.6 14.3 -2.7
14/1/2007 90 357 0 6 19 0 9 19 0 67 98 27 7.1 15.6 1.7 6.4 15.6 -0.2
15/1/2007 90 357 0 7 18 0 11 18 0 85 98 49 6.7 12.1 4.6 5.6 12.0 1.7
16/1/2007 315 357 0 4 23 0 7 23 0 78 92 50 6.9 12.0 3.6 6.4 11.7 2.5
17/1/2007 315 357 0 7 18 0 11 18 0 87 98 57 5.5 10.7 2.1 4.1 10.7 -1.2
18/1/2007 315 357 0 10 25 0 16 25 0 90 98 66 4.9 9.7 1.2 2.7 8.4 -2.9
19/1/2007 315 357 0 7 18 0 12 18 0 83 98 46 6.3 14.9 1.1 4.7 14.9 -3.5
22/1/2007 315 357 0 15 30 5 21 30 9 79 91 69 5.4 7.4 3.8 2.3 6.1 -0.3
23/1/2007 292 357 0 15 28 0 22 28 6 72 98 44 3.2 7.2 0.3 -0.3 5.9 -4.5
24/1/2007 315 357 0 9 26 0 15 26 0 63 88 34 0.7 6.0 -2.8 -2.0 4.6 -7.4
25/1/2007 292 357 0 7 26 0 12 26 0 80 93 57 -0.3 2.1 -2.5 -2.6 1.6 -7.3
26/1/2007 90 357 9 9 36 0 14 36 0 90 97 78 1.0 2.0 -0.1 -1.4 0.8 -5.6
27/1/2007 90 357 0 7 21 0 12 21 0 67 86 52 1.5 5.0 -1.0 -0.4 4.4 -4.8
28/1/2007 90 357 1 12 28 0 18 28 4 77 96 58 1.6 4.1 -1.7 -1.6 3.2 -6.4
29/1/2007 90 357 1 10 21 0 15 21 0 97 98 95 4.7 5.7 3.7 2.4 5.4 -0.6
30/1/2007 315 357 0 4 18 0 7 18 0 87 98 56 5.7 9.3 3.7 4.8 8.7 0.0
31/1/2007 315 357 0 2 12 0 4 12 0 89 97 66 3.9 7.3 2.2 3.5 7.3 0.1
1/2/2007 315 357 0 5 14 0 7 14 0 80 98 43 4.1 10.2 0.1 3.0 10.1 -2.8
2/2/2007 90 357 0 6 20 0 10 20 0 78 97 50 4.5 9.3 0.2 3.2 9.3 -3.1
3/2/2007 90 357 7 6 18 0 10 18 0 93 98 80 6.8 9.2 5.4 5.6 9.2 2.0
4/2/2007 90 357 1 0 10 0 1 10 0 82 97 43 7.8 13.6 5.3 7.8 13.6 5.3
5/2/2007 68 353 28 0 6 0 0 6 0 89 95 68 7.5 10.5 3.8 7.5 10.5 3.8
6/2/2007 315 357 0 4 20 0 8 20 0 83 98 40 5.6 11.5 1.3 4.9 11.3 -0.7
7/2/2007 292 357 0 11 32 0 17 32 0 72 97 41 7.1 12.7 2.9 5.2 11.6 0.3
8/2/2007 270 357 0 11 40 0 17 40 0 81 93 70 9.1 12.7 7.1 7.6 12.0 4.3
9/2/2007 292 357 0 19 46 4 28 46 8 69 93 39 8.0 11.6 4.9 5.2 10.2 0.3
10/2/2007 292 357 0 19 39 0 27 39 5 61 84 36 10.7 15.6 5.9 8.6 15.4 2.7
11/2/2007 270 357 0 13 28 0 22 28 8 68 81 50 12.4 15.9 9.9 11.1 15.8 7.5
12/2/2007 292 357 0 17 49 0 27 49 0 62 84 44 12.8 17.0 8.2 11.5 16.3 6.9
13/2/2007 315 357 0 6 23 0 9 23 0 71 92 37 11.7 17.5 7.3 11.4 17.4 6.5
15/2/2007 90 357 0 5 18 0 10 18 0 24 39 15 14.5 19.1 10.6 14.4 19.1 9.3
16/2/2007 90 357 0 8 28 0 15 28 0 29 55 22 12.7 19.4 6.3 12.1 19.4 3.9
17/2/2007 315 357 0 10 28 0 16 28 0 54 75 29 9.0 13.2 6.3 7.6 12.9 2.1
18/2/2007 315 357 0 16 41 4 26 41 5 56 77 36 8.3 12.8 5.0 5.9 12.1 0.6
19/2/2007 315 357 0 7 21 0 12 21 0 47 74 26 9.5 15.2 3.2 8.7 15.1 0.5
20/2/2007 315 357 0 5 19 0 8 19 0 66 84 48 8.3 10.4 6.5 7.6 10.0 4.7
21/2/2007 315 357 0 5 18 0 8 18 0 76 94 46 7.7 11.7 5.7 7.0 11.7 3.6
22/2/2007 315 357 0 9 28 0 14 28 0 77 89 61 7.0 11.8 2.8 5.4 11.8 -0.2
23/2/2007 292 357 0 14 36 0 22 36 0 71 93 36 9.6 15.1 5.6 7.8 14.3 3.5
24/2/2007 292 357 0 14 28 4 20 28 8 65 88 38 9.7 14.1 6.0 7.8 13.6 2.5
25/2/2007 292 357 0 16 37 4 23 37 6 69 93 45 9.6 14.9 5.6 7.6 13.9 3.2
26/2/2007 315 357 0 10 23 0 15 23 4 61 86 31 7.6 14.1 2.1 6.0 13.9 -1.3
27/2/2007 315 357 0 10 24 0 15 24 0 56 79 33 9.4 17.5 2.1 8.1 17.5 -0.8
28/2/2007 315 357 0 10 27 4 15 27 5 58 80 25 12.2 20.0 5.1 11.5 20.0 3.4
1/3/2007 292 357 0 15 31 4 20 31 6 53 88 23 13.5 18.5 8.7 12.4 18.3 6.3
2/3/2007 315 357 0 12 27 4 17 27 6 57 86 27 11.4 18.5 5.6 10.1 18.5 2.3
3/3/2007 315 357 0 9 22 0 15 22 0 60 94 26 13.0 20.9 6.5 12.1 20.9 3.8
4/3/2007 68 357 0 6 32 0 12 32 0 43 75 13 14.0 24.3 6.2 13.9 24.3 5.0
5/3/2007 315 357 0 9 26 0 15 26 0 49 91 19 10.6 16.1 5.3 9.6 16.1 1.9
6/3/2007 292 357 0 7 31 0 12 31 0 52 82 25 7.9 14.2 2.9 7.0 14.2 2.0
7/3/2007 292 357 0 23 60 4 36 60 6 58 91 19 11.4 17.6 6.7 9.2 17.0 1.7
8/3/2007 338 357 0 20 51 0 32 51 0 37 54 24 8.5 14.7 3.5 5.7 14.4 -2.0
9/3/2007 315 357 0 9 28 0 14 28 0 40 64 17 9.6 19.5 0.4 8.5 19.5 -3.5
10/3/2007 315 357 0 8 25 0 13 25 0 35 65 15 10.5 19.8 2.3 9.8 19.8 -0.8
11/3/2007 315 357 0 3 13 0 7 13 0 28 46 16 9.1 17.1 1.7 9.0 17.1 0.2
12/3/2007 90 357 0 7 21 0 12 21 0 42 79 26 8.6 16.1 1.9 7.7 16.1 0.0
16/3/2007 90 357 0 5 24 0 12 24 0 51 62 28 11.2 16.0 8.7 10.9 16.0 8.2
17/3/2007 90 357 0 2 16 0 6 16 0 46 73 22 11.3 20.2 4.3 11.2 20.2 4.3
18/3/2007 315 357 0 8 28 0 12 28 0 39 71 17 11.8 20.4 2.9 11.4 20.4 1.4
19/3/2007 315 357 0 19 52 4 31 52 6 34 47 22 10.7 15.6 4.5 8.6 14.4 0.1
20/3/2007 315 357 0 18 43 4 28 43 9 39 62 21 4.2 10.4 -1.2 0.5 8.7 -7.2
21/3/2007 315 357 0 15 41 4 25 41 6 43 76 19 3.4 10.9 -3.0 0.0 10.4 -8.1
22/3/2007 315 357 0 14 40 0 23 40 5 33 56 18 4.1 12.3 -3.8 1.0 11.5 -9.6
23/3/2007 315 357 0 11 32 0 19 32 0 35 49 25 8.3 16.7 1.2 6.5 16.6 -2.7
24/3/2007 315 357 0 9 27 0 15 27 0 39 68 18 9.5 18.2 1.5 8.4 18.2 -2.3
25/3/2007 315 357 0 4 25 0 9 25 0 35 56 21 9.6 17.9 1.0 9.5 17.9 -0.8
26/3/2007 90 357 0 6 18 0 11 18 0 50 84 25 10.9 17.2 6.8 10.4 17.2 5.2
27/3/2007 68 357 0 4 13 0 7 13 0 84 92 65 8.4 10.3 7.2 7.9 10.1 5.6
28/3/2007 90 357 0 4 13 0 7 13 0 84 93 70 6.4 7.8 4.7 5.9 7.8 2.1
29/3/2007 315 357 0 7 21 0 12 21 0 73 96 38 7.8 13.8 3.8 6.6 13.8 0.8
30/3/2007 315 357 0 9 28 0 15 28 0 57 81 27 9.0 16.3 3.2 8.0 15.8 1.1
31/3/2007 270 357 0 10 29 0 16 29 0 65 86 32 9.4 15.4 6.5 8.1 15.4 3.6
1/4/2007 45 357 0 2 10 0 5 10 0 78 89 39 8.1 12.9 5.3 7.9 12.9 3.6
2/4/2007 338 357 0 3 16 0 5 16 0 77 93 38 7.0 13.2 2.8 6.7 13.2 2.2
3/4/2007 292 357 0 8 21 0 10 21 0 70 97 37 7.3 13.8 1.6 6.1 13.3 -1.1
4/4/2007 315 357 0 11 31 0 17 31 0 80 93 59 5.6 10.4 2.9 3.4 9.1 -1.1
5/4/2007 90 357 0 5 18 0 8 18 0 63 81 37 6.2 11.2 3.1 5.5 11.2 1.1
6/4/2007 90 357 0 9 24 0 13 24 0 83 93 46 7.4 13.4 5.2 5.9 12.9 2.3
7/4/2007 90 357 0 5 16 0 8 16 0 77 95 45 8.1 13.0 5.0 7.4 12.7 2.8
9/4/2007 90 357 0 9 18 4 14 18 4 56 73 45 13.1 15.6 10.8 12.5 15.4 8.8
10/4/2007 90 357 0 5 14 0 8 14 0 71 90 35 12.1 18.6 9.3 11.8 18.6 7.9
11/4/2007 90 357 0 7 21 0 12 21 0 67 88 42 10.6 14.9 5.9 10.0 14.8 4.2
14/4/2007 90 357 0 5 16 0 10 16 0 60 86 35 14.2 17.7 9.7 14.1 17.7 9.5
15/4/2007 90 357 0 3 14 0 5 14 0 60 92 24 14.0 22.5 8.9 14.0 22.5 8.2
16/4/2007 90 357 0 5 25 0 9 25 0 49 77 22 14.5 22.9 7.0 14.5 22.9 6.5
17/4/2007 90 357 0 6 25 0 11 25 0 44 73 21 14.9 24.2 7.3 14.8 24.2 7.3
18/4/2007 90 152 6 9 26 0 16 26 5 28 48 18 18.5 23.9 11.7 18.4 23.9 10.3
19/4/2007 90 357 0 3 14 0 5 14 0 39 71 15 15.4 24.9 6.1 15.4 24.9 5.0
20/4/2007 68 357 0 6 21 0 10 21 0 40 67 18 16.8 24.8 9.7 16.8 24.8 9.4
21/4/2007 90 357 0 7 23 0 11 23 4 39 56 18 15.3 24.1 9.0 15.1 24.1 7.4
22/4/2007 90 357 0 6 20 0 10 20 0 42 63 25 15.1 20.5 9.8 15.1 20.5 9.2
23/4/2007 90 357 0 5 21 0 10 21 0 35 58 15 17.5 27.6 8.5 17.5 27.6 8.5
24/4/2007 45 357 0 2 15 0 7 15 0 31 55 14 18.2 28.0 9.0 18.2 28.0 9.0
25/4/2007 68 357 0 7 25 0 12 25 0 47 81 32 15.5 21.6 11.9 15.3 21.6 11.3
26/4/2007 90 357 0 5 24 0 10 24 0 69 89 38 13.5 18.7 11.2 13.3 18.7 10.0
27/4/2007 90 357 0 5 26 0 9 26 0 71 89 28 12.9 20.3 9.9 12.7 20.3 8.0
28/4/2007 90 357 0 5 14 0 7 14 0 61 92 25 14.2 22.8 6.1 14.1 22.8 5.4
29/4/2007 90 329 82 0 5 0 0 5 0 33 33 33 19.7 19.7 19.7 19.7 19.7 19.7
1/5/2007 270 357 0 10 21 4 16 21 6 36 46 27 11.9 14.0 9.1 11.0 14.0 7.3
2/5/2007 45 357 0 5 23 0 10 23 0 61 80 38 10.6 16.5 6.5 10.3 16.5 4.9
3/5/2007 315 357 0 6 27 0 11 27 0 65 82 28 11.6 19.4 8.1 11.3 19.4 7.4
4/5/2007 315 357 0 9 30 0 16 30 0 60 95 24 13.0 20.3 7.9 12.4 20.3 5.0
5/5/2007 315 357 0 11 32 0 17 32 4 43 78 16 13.7 22.2 5.9 13.0 22.2 3.1
6/5/2007 315 357 0 8 18 0 12 18 0 42 77 15 14.1 26.5 4.2 13.5 26.5 1.4
7/5/2007 315 357 0 8 27 0 13 27 0 35 68 13 16.9 30.2 5.3 16.5 30.2 3.0
8/5/2007 315 357 0 6 21 0 11 21 0 23 45 12 23.2 33.4 12.5 23.2 33.4 12.5
9/5/2007 315 357 0 3 20 0 6 20 0 27 48 11 21.5 34.0 11.2 21.5 34.0 11.2
10/5/2007 315 357 0 5 30 0 10 30 0 28 52 11 22.5 34.0 13.2 22.5 34.0 13.2
11/5/2007 315 357 0 8 28 0 14 28 0 29 53 11 21.0 31.2 12.8 21.0 31.2 12.4
12/5/2007 338 357 0 6 25 0 11 25 0 30 51 12 21.2 32.9 12.0 21.1 32.9 11.3
13/5/2007 292 357 0 8 25 0 14 25 0 29 42 19 20.1 28.3 14.4 20.0 28.3 14.0
14/5/2007 315 357 0 12 28 0 17 28 4 28 41 14 17.0 22.1 11.9 16.8 22.1 11.8
15/5/2007 338 357 0 3 13 0 6 13 0 29 54 11 16.2 29.4 5.8 16.2 29.4 5.8
16/5/2007 315 357 0 7 30 0 12 30 0 30 54 14 18.3 28.5 9.8 18.3 28.5 9.1
17/5/2007 338 357 0 3 14 0 7 14 0 33 56 16 19.7 29.6 10.5 19.7 29.6 9.7
18/5/2007 45 357 0 4 14 0 7 14 0 32 62 10 23.4 37.2 13.4 23.4 37.2 13.1
19/5/2007 68 357 0 9 26 0 17 26 4 29 46 12 23.8 33.1 16.5 23.8 33.1 15.9
20/5/2007 90 357 0 11 41 0 18 41 0 46 87 15 20.3 32.3 14.8 20.1 32.3 13.3
21/5/2007 90 357 0 3 21 0 8 21 0 62 90 18 18.5 31.5 11.4 18.5 31.5 11.4
22/5/2007 90 357 0 11 32 0 20 32 4 68 88 32 16.9 26.1 14.0 16.6 26.1 12.6
23/5/2007 90 357 0 9 26 0 16 26 0 59 86 31 18.0 25.6 14.2 18.0 25.6 13.4
24/5/2007 315 357 0 8 28 0 14 28 0 60 78 29 16.6 25.2 12.0 16.5 25.2 12.0
25/5/2007 315 357 0 6 24 0 10 24 0 77 91 54 13.6 17.7 10.7 13.4 17.7 9.6
26/5/2007 315 357 0 8 28 0 14 28 0 61 93 20 14.6 25.6 8.6 14.4 25.6 6.9
27/5/2007 292 357 0 15 37 4 23 37 4 53 79 24 15.8 23.5 10.7 15.2 23.5 9.2
28/5/2007 315 357 0 14 32 0 22 32 4 42 85 14 15.7 23.5 9.7 15.0 23.5 7.0
29/5/2007 315 357 0 8 25 0 13 25 0 34 62 13 17.0 29.5 7.6 16.8 29.5 6.2
30/5/2007 315 357 0 9 31 0 16 31 0 36 69 13 19.9 30.6 11.2 19.8 30.6 10.3
31/5/2007 315 357 0 11 32 0 18 32 0 36 70 14 18.4 27.0 12.6 18.3 27.0 12.5
1/6/2007 315 357 0 9 25 0 15 25 0 35 72 14 18.5 28.8 10.2 18.3 28.8 8.7
2/6/2007 338 357 0 9 28 0 16 28 0 29 52 13 20.2 31.2 11.7 20.0 31.2 10.5
3/6/2007 338 357 0 4 26 0 10 26 0 26 48 11 22.0 35.6 13.6 22.0 35.6 13.6
4/6/2007 68 357 0 6 24 0 12 24 0 24 39 12 22.4 32.0 15.2 22.4 32.0 14.8
5/6/2007 90 357 0 10 25 0 17 25 0 39 63 18 20.3 29.7 14.0 20.2 29.7 13.0
6/6/2007 90 357 0 7 20 0 13 20 0 43 78 11 20.7 34.1 12.7 20.6 34.1 11.9
7/6/2007 68 357 0 5 21 0 11 21 0 31 57 10 23.9 37.2 14.3 23.8 37.2 13.9
8/6/2007 90 357 0 5 20 0 10 20 0 25 38 11 25.2 36.2 16.9 25.2 36.2 16.9
9/6/2007 45 357 0 7 20 0 12 20 0 21 35 11 25.3 35.3 17.5 25.3 35.3 17.5
10/6/2007 315 357 0 6 23 0 12 23 0 29 49 12 22.9 33.4 16.6 22.9 33.4 16.5
11/6/2007 315 357 0 5 14 0 9 14 0 26 46 10 23.7 38.0 13.6 23.7 38.0 13.1
12/6/2007 68 357 0 5 21 0 11 21 0 24 43 10 25.8 38.0 17.1 25.8 38.0 17.1
13/6/2007 315 357 0 8 28 0 15 28 0 22 39 11 24.5 35.2 16.1 24.5 35.2 16.0
14/6/2007 270 357 0 12 34 0 19 34 0 30 50 16 22.1 30.6 15.9 22.1 30.6 15.6
15/6/2007 270 357 0 11 31 0 18 31 0 60 92 23 19.0 26.1 14.2 18.9 26.1 13.8
16/6/2007 270 357 0 10 32 0 18 32 0 54 89 25 20.2 27.4 16.6 20.2 27.4 16.2
17/6/2007 292 357 0 8 28 0 14 28 0 39 68 15 22.4 32.0 16.6 22.4 32.0 16.6
18/6/2007 90 357 0 3 17 0 8 17 0 35 67 12 24.5 32.9 17.6 24.5 32.9 17.6
19/6/2007 315 357 0 9 31 0 16 31 0 27 51 11 24.8 35.2 17.8 24.8 35.2 17.8
20/6/2007 315 357 0 8 25 0 13 25 0 31 66 12 21.2 32.3 12.5 21.2 32.3 11.7
21/6/2007 315 357 0 9 35 0 16 35 0 25 49 12 21.8 32.5 12.5 21.8 32.5 11.2
22/6/2007 315 357 0 7 21 0 13 21 0 24 48 10 22.7 37.7 11.9 22.6 37.7 10.6
23/6/2007 68 357 0 9 30 0 17 30 4 28 42 14 24.1 34.3 16.4 24.1 34.3 15.9
24/6/2007 90 357 0 10 25 0 16 25 4 30 70 10 26.3 38.3 16.9 26.3 38.3 16.6
25/6/2007 315 357 0 12 38 0 18 38 0 20 34 11 25.7 34.7 18.2 25.7 34.7 18.2
26/6/2007 315 357 0 7 24 0 13 24 0 26 49 11 24.0 35.4 15.8 24.0 35.4 15.5
27/6/2007 90 357 0 6 21 0 12 21 0 37 71 11 24.1 35.9 16.4 24.1 35.9 16.4
28/6/2007 90 357 0 8 21 0 14 21 4 37 64 10 25.0 38.7 18.5 25.0 38.7 18.5
29/6/2007 90 357 0 7 25 0 11 25 0 31 64 9 26.8 39.3 17.7 26.8 39.3 17.7
30/6/2007 45 357 0 6 22 0 9 22 0 23 39 10 27.3 37.6 19.2 27.3 37.6 19.2
1/7/2007 292 357 0 10 32 0 17 32 0 19 30 11 26.1 35.5 19.5 26.1 35.5 19.5
2/7/2007 315 357 0 9 21 0 14 21 0 22 43 10 24.7 37.1 14.4 24.7 37.1 13.9
3/7/2007 338 357 0 8 25 0 13 25 0 25 56 10 26.8 38.0 16.4 26.8 38.0 16.4
4/7/2007 315 357 0 10 25 0 14 25 4 25 47 10 27.7 38.7 19.0 27.7 38.7 19.0
5/7/2007 90 357 0 7 20 0 13 20 0 27 43 9 26.4 39.1 18.7 26.4 39.1 18.7
6/7/2007 90 357 0 8 24 0 14 24 4 33 68 11 26.0 36.7 17.8 26.0 36.7 17.8
7/7/2007 90 357 0 8 26 0 14 26 5 19 31 10 27.0 38.5 17.9 27.0 38.5 17.9
8/7/2007 90 357 0 8 27 0 14 27 0 21 38 9 28.7 40.7 19.3 28.7 40.7 19.3
9/7/2007 338 357 0 8 27 0 13 27 0 18 42 10 27.2 37.4 19.5 27.2 37.4 19.5
10/7/2007 90 357 0 8 28 0 14 28 0 21 44 11 25.0 35.3 17.7 25.0 35.3 17.7
11/7/2007 68 357 0 7 21 0 11 21 0 25 52 9 27.0 39.0 17.7 27.0 39.0 17.7
12/7/2007 90 357 0 10 26 4 18 26 5 33 69 14 25.0 34.1 18.0 25.0 34.1 17.9
13/7/2007 90 357 0 8 27 0 16 27 4 25 52 10 26.8 37.5 18.1 26.8 37.5 18.0
14/7/2007 90 357 0 12 33 4 20 33 4 27 63 11 26.0 34.4 18.1 26.0 34.4 18.0
15/7/2007 90 357 0 11 24 0 16 24 6 33 67 11 25.6 36.2 17.3 25.6 36.2 17.1
16/7/2007 90 357 0 8 29 0 13 29 0 31 66 10 26.7 38.3 18.7 26.7 38.3 18.7
17/7/2007 292 353 5 8 21 0 12 21 0 20 38 9 27.5 40.4 17.1 27.5 40.4 17.1
18/7/2007 315 353 254 6 12 0 9 12 4 20 23 13 22.6 26.3 19.4 22.6 26.3 19.4
19/7/2007 338 357 0 7 30 0 13 30 0 13 18 10 27.1 38.9 17.7 27.1 38.9 17.7
20/7/2007 315 357 0 8 20 0 13 20 0 18 31 11 24.7 36.8 15.0 24.7 36.8 14.6
21/7/2007 315 357 0 7 25 0 14 25 0 29 66 11 25.3 35.9 17.2 25.3 35.9 17.2
22/7/2007 315 357 0 5 25 0 10 25 0 21 54 10 25.6 38.1 15.4 25.6 38.1 15.4
23/7/2007 292 357 0 11 32 0 18 32 0 17 31 12 25.0 33.4 17.6 25.0 33.4 17.6
24/7/2007 315 357 0 7 21 0 12 21 0 26 46 10 25.4 38.9 15.3 25.4 38.9 15.1
25/7/2007 90 357 0 8 26 0 14 26 0 30 63 9 27.8 40.2 18.7 27.8 40.2 18.7
26/7/2007 90 357 0 6 23 0 11 23 0 28 53 8 29.3 42.1 19.5 29.3 42.1 19.5
27/7/2007 315 357 0 3 24 0 7 24 0 20 42 7 30.5 44.9 19.2 30.4 44.9 19.2
28/7/2007 90 357 0 4 21 0 10 21 0 22 45 8 30.5 43.9 19.1 30.5 43.9 19.1
29/7/2007 90 357 0 7 22 0 12 22 0 23 44 8 29.8 43.6 20.8 29.8 43.6 20.8
30/7/2007 90 357 0 7 23 0 12 23 0 20 35 9 29.8 41.7 21.6 29.8 41.7 21.6
31/7/2007 90 357 0 3 14 0 7 14 0 23 36 9 25.7 39.2 18.6 25.7 39.2 18.6
1/8/2007 90 357 0 6 31 0 12 31 0 18 35 8 31.5 42.8 22.6 31.5 42.8 22.6
2/8/2007 315 357 0 5 24 0 10 24 0 15 43 8 30.5 43.1 19.6 30.5 43.1 19.6
3/8/2007 90 357 0 8 21 0 14 21 4 36 69 10 28.0 38.8 20.7 28.0 38.8 20.7
4/8/2007 68 357 0 7 18 0 11 18 0 31 64 8 29.2 42.8 19.3 29.1 42.8 19.3
5/8/2007 68 357 0 6 36 0 12 36 0 26 42 9 28.5 40.5 21.9 28.5 40.5 21.9
9/8/2007 90 357 0 8 25 0 14 25 0 35 68 11 26.3 36.6 19.3 26.3 36.6 19.3
10/8/2007 68 357 0 6 28 0 13 28 0 35 69 10 27.3 37.7 20.3 27.3 37.7 20.3
11/8/2007 270 357 0 8 26 0 14 26 0 20 42 11 27.7 36.9 20.7 27.7 36.9 20.7
12/8/2007 315 357 0 9 41 0 15 41 0 22 38 12 25.2 32.3 19.5 25.2 32.3 19.5
13/8/2007 90 357 0 4 26 0 9 26 0 29 50 11 24.9 36.8 15.1 24.9 36.8 15.1
14/8/2007 338 357 0 5 23 0 10 23 0 25 52 10 26.7 37.0 18.0 26.7 37.0 18.0
15/8/2007 315 357 0 8 27 0 14 27 0 16 23 10 27.0 37.2 18.8 27.0 37.2 18.8
16/8/2007 315 357 0 9 23 0 14 23 0 27 54 12 25.5 34.6 18.0 25.5 34.6 18.0
17/8/2007 90 357 0 10 25 0 17 25 4 39 61 17 25.0 33.5 20.1 25.0 33.5 20.1
18/8/2007 68 357 0 7 21 0 13 21 0 38 66 11 26.6 37.0 19.7 26.6 37.0 19.7
22/8/2007 0 116 50 0 10 6 0 10 6 0 47 47 0.0 19.5 19.4 0.0 19.5 19.4
23/8/2007 90 357 0 6 23 0 12 23 0 32 50 13 22.2 31.2 15.3 22.2 31.2 15.2
24/8/2007 90 357 0 10 27 0 17 27 5 45 66 26 19.5 24.6 15.4 19.5 24.6 15.0
25/8/2007 90 357 0 12 35 0 21 35 5 52 81 33 21.0 27.1 17.5 21.0 27.1 17.1
26/8/2007 90 357 0 10 32 0 19 32 4 40 71 18 24.6 32.6 18.4 24.6 32.6 18.4
27/8/2007 90 357 0 8 27 0 15 27 0 26 45 11 27.0 36.8 19.1 27.0 36.8 19.1
28/8/2007 90 357 0 3 25 0 9 25 0 26 40 10 27.2 38.7 20.6 27.2 38.7 20.6
29/8/2007 292 357 0 9 29 0 14 29 0 27 46 12 25.5 33.5 20.5 25.5 33.5 20.5
30/8/2007 315 357 0 6 24 0 12 24 0 25 39 13 22.8 31.7 15.9 22.8 31.7 15.9
31/8/2007 90 357 0 5 15 0 10 15 0 27 52 13 23.2 31.5 16.2 23.2 31.5 16.1
1/9/2007 68 357 0 8 21 0 13 21 4 39 68 18 23.1 30.5 17.1 23.1 30.5 17.0
2/9/2007 45 357 0 7 17 0 12 17 0 35 66 13 23.1 31.5 15.6 23.1 31.5 15.4
3/9/2007 68 357 0 5 14 0 9 14 0 27 44 11 24.6 35.1 17.4 24.6 35.1 17.4
4/9/2007 90 357 0 6 30 0 12 30 0 26 44 11 24.7 34.2 17.4 24.7 34.2 17.4
5/9/2007 68 357 0 9 25 0 16 25 4 39 69 19 22.8 30.0 16.5 22.8 30.0 16.0
6/9/2007 90 357 0 7 17 0 13 17 0 34 55 12 23.7 32.0 18.5 23.7 32.0 18.5
7/9/2007 68 357 0 6 21 0 11 21 0 26 43 12 23.7 33.7 15.3 23.7 33.7 15.3
8/9/2007 68 357 0 6 17 0 11 17 0 32 57 12 23.5 32.8 15.9 23.5 32.8 15.6
9/9/2007 68 357 0 5 16 0 10 16 0 30 66 14 25.0 33.0 17.0 25.0 33.0 17.0
10/9/2007 90 357 0 5 21 0 10 21 0 34 55 18 24.0 32.7 19.1 24.0 32.7 19.1
11/9/2007 68 357 0 6 23 0 11 23 0 44 77 19 22.2 29.5 16.3 22.2 29.5 16.3
12/9/2007 68 357 0 8 24 0 14 24 4 41 66 25 21.5 27.1 17.3 21.5 27.1 17.1
13/9/2007 68 357 0 5 27 0 10 27 0 45 80 19 21.6 30.0 15.5 21.6 30.0 15.0
14/9/2007 90 357 0 3 27 0 8 27 0 64 81 39 18.3 22.9 16.3 18.3 22.9 16.2
15/9/2007 68 357 0 6 16 0 11 16 0 55 90 21 19.5 28.1 13.5 19.5 28.1 13.5
16/9/2007 68 357 0 7 21 0 12 21 4 48 74 22 21.2 28.4 15.7 21.2 28.4 15.5
17/9/2007 68 357 0 7 32 0 13 32 0 45 80 13 22.4 30.0 16.7 22.4 30.0 16.7
18/9/2007 338 357 0 5 21 0 10 21 0 32 52 13 21.4 30.0 14.3 21.4 30.0 13.8
19/9/2007 68 357 0 8 21 0 14 21 4 46 73 19 21.9 29.3 16.8 21.9 29.3 16.7
20/9/2007 68 357 0 8 21 0 15 21 0 53 78 26 21.0 26.8 16.7 21.0 26.8 16.3
21/9/2007 90 357 0 5 21 0 10 21 0 65 79 51 17.9 21.2 15.4 17.9 21.2 15.4
22/9/2007 315 357 0 3 16 0 6 16 0 62 83 31 18.1 25.2 14.0 18.1 25.2 14.0
23/9/2007 68 353 0 3 15 0 7 15 0 51 78 22 19.6 26.0 14.5 19.6 26.0 14.5
24/9/2007 90 357 0 4 23 0 9 23 0 43 73 16 20.4 29.1 14.1 20.4 29.1 14.1
26/9/2007 315 357 0 9 23 0 15 23 0 17 26 13 20.5 25.3 14.7 20.5 25.3 14.7
27/9/2007 338 357 0 6 25 0 12 25 0 30 49 17 14.8 21.8 7.9 14.7 21.8 6.3
28/9/2007 90 357 0 6 23 0 11 23 0 26 40 14 17.4 27.0 8.9 17.1 27.0 7.2
29/9/2007 292 357 0 6 26 0 11 26 0 47 73 29 18.9 22.7 15.8 18.9 22.7 15.8
30/9/2007 68 357 0 4 19 0 7 19 0 40 66 14 19.6 28.2 12.9 19.6 28.2 12.8
1/10/2007 68 357 0 5 14 0 9 14 0 44 83 18 21.0 30.4 14.9 21.0 30.4 14.5
2/10/2007 90 357 0 7 22 0 12 22 4 52 80 25 19.7 25.5 15.1 19.7 25.5 14.8
3/10/2007 90 357 0 3 18 0 7 18 0 69 94 35 17.5 21.2 15.0 17.5 21.2 15.0
4/10/2007 68 357 0 3 11 0 5 11 0 68 88 44 16.0 19.3 13.7 16.0 19.3 13.3
5/10/2007 315 357 0 6 24 0 9 24 0 57 85 25 16.8 23.1 11.5 16.7 23.1 11.5
6/10/2007 315 357 7 5 18 0 7 18 0 51 84 21 17.2 24.9 10.9 17.1 24.9 9.8
7/10/2007 315 357 0 6 14 0 9 14 0 46 74 20 17.8 25.8 11.4 17.8 25.8 10.4
8/10/2007 315 357 0 5 20 0 8 20 0 44 72 20 18.4 26.3 11.8 18.4 26.3 11.8
9/10/2007 90 357 0 5 14 0 8 14 0 34 49 16 18.4 24.5 13.8 18.4 24.5 13.6
11/10/2007 90 345 0 6 14 0 10 14 4 47 70 24 15.4 19.7 12.2 15.3 19.7 11.5
12/10/2007 90 357 0 4 16 0 9 16 0 60 86 28 13.8 19.1 11.1 13.7 19.1 10.0
13/10/2007 68 357 0 3 12 0 6 12 0 55 80 25 13.5 20.6 7.7 13.4 20.6 6.8
14/10/2007 68 357 0 7 21 0 12 21 4 62 85 34 14.7 19.3 10.9 14.6 19.3 9.8
15/10/2007 90 357 0 6 18 0 12 18 0 61 89 26 15.0 21.0 10.7 14.9 21.0 9.5
18/10/2007 90 311 7 8 21 0 15 21 4 49 67 35 16.4 19.2 13.5 16.3 19.2 13.0
19/10/2007 90 357 0 2 14 0 6 14 0 53 76 26 15.5 22.0 10.4 15.5 22.0 10.4
20/10/2007 315 357 0 5 24 0 9 24 0 49 87 19 15.3 23.1 10.1 15.2 23.1 9.5
21/10/2007 90 357 0 4 16 0 9 16 0 53 83 23 15.0 21.2 10.5 14.9 21.2 10.3
22/10/2007 315 357 0 8 23 0 13 23 0 36 65 13 14.4 23.0 7.5 14.0 23.0 5.1
23/10/2007 315 357 0 7 21 0 11 21 0 30 43 19 15.4 21.3 10.5 15.2 21.3 9.2
24/10/2007 315 357 0 6 21 0 10 21 0 60 96 35 13.3 16.4 10.0 12.9 16.4 8.4
25/10/2007 315 357 0 3 14 0 8 14 0 71 95 38 11.6 16.1 9.1 11.4 16.1 7.9
26/10/2007 338 357 0 4 20 0 8 20 0 66 89 35 9.8 15.6 5.7 9.5 15.6 4.8
27/10/2007 90 357 0 6 18 0 9 18 0 55 72 35 10.0 14.7 6.7 9.6 14.7 5.0
28/10/2007 90 353 0 3 13 0 5 13 0 55 75 33 12.3 17.9 6.9 12.2 17.9 6.5
29/10/2007 315 357 0 5 18 0 8 18 0 49 83 23 12.4 19.5 6.4 12.2 19.5 4.8
30/10/2007 338 357 0 10 28 0 16 28 0 39 65 21 11.4 16.7 6.6 10.4 16.7 4.5
31/10/2007 338 357 0 3 14 0 7 14 0 36 58 19 9.8 16.1 3.7 9.5 16.1 2.1
1/11/2007 90 357 0 2 10 0 4 10 0 36 60 18 9.7 17.5 2.7 9.6 17.5 0.9
2/11/2007 68 357 0 4 17 0 7 17 0 44 67 26 10.1 18.1 3.1 9.9 18.1 1.9
3/11/2007 90 288 19 2 10 0 4 10 0 58 88 24 10.6 17.0 6.2 10.6 17.0 5.7
4/11/2007 315 357 0 1 9 0 2 9 0 41 65 18 10.3 18.9 3.0 10.3 18.9 3.0
5/11/2007 315 357 0 3 19 0 5 19 0 38 73 17 11.0 20.8 3.2 11.0 20.8 3.2
6/11/2007 68 357 0 3 12 0 6 12 0 62 84 30 11.0 16.3 7.7 10.8 16.3 6.8
7/11/2007 68 357 0 4 16 0 8 16 0 59 92 33 9.8 17.3 4.0 9.5 17.3 1.8
8/11/2007 315 357 0 7 19 0 9 19 0 50 84 20 9.9 19.7 1.4 9.4 19.7 -1.5
9/11/2007 90 357 0 6 15 0 10 15 0 37 54 23 10.5 18.3 3.7 9.9 18.3 2.3
10/11/2007 90 357 0 5 18 0 9 18 0 40 60 28 11.2 17.9 6.2 10.7 17.9 3.5
11/11/2007 338 357 0 6 14 0 9 14 0 39 69 15 8.6 18.0 0.9 7.9 18.0 -0.8
12/11/2007 338 357 0 5 13 0 9 13 0 25 42 15 8.8 18.9 0.6 8.1 18.9 -1.4
13/11/2007 90 357 0 2 13 0 5 13 0 40 81 24 8.8 16.1 3.9 8.6 16.1 2.8
14/11/2007 338 357 0 11 31 4 17 31 4 38 51 24 8.2 16.6 1.1 6.5 16.6 -2.7
15/11/2007 338 357 0 12 30 0 18 30 5 41 64 25 7.6 13.5 1.8 5.7 13.5 -1.7
16/11/2007 315 357 0 7 17 0 11 17 0 33 54 16 3.0 11.2 -5.5 1.2 11.2 -10.1
17/11/2007 315 357 0 6 18 0 10 18 0 21 30 16 2.3 12.4 -6.5 0.9 12.4 -11.1
18/11/2007 315 357 0 4 24 0 8 24 0 21 32 16 4.1 15.7 -4.8 3.6 15.6 -7.5
19/11/2007 68 357 1 2 9 0 4 9 0 23 31 19 5.7 13.5 -2.2 5.5 13.5 -3.5
20/11/2007 68 357 0 7 36 0 13 36 0 49 81 24 11.5 16.0 8.0 11.1 16.0 6.2
21/11/2007 315 357 0 5 17 0 10 17 0 73 98 46 11.4 13.5 7.0 11.1 13.5 5.9
22/11/2007 338 357 0 3 13 0 5 13 0 74 90 51 6.8 11.1 3.2 6.5 11.1 2.0
23/11/2007 292 357 1 7 20 0 11 20 0 72 96 41 7.2 11.1 3.5 5.9 11.1 -0.4
24/11/2007 90 350 5 3 17 0 7 17 0 63 85 37 4.8 11.0 -0.5 4.3 11.0 -1.5
25/11/2007 90 357 0 4 12 0 7 12 0 47 68 27 6.8 11.6 1.5 6.3 11.6 -0.5
26/11/2007 338 357 0 6 15 0 9 15 0 50 69 28 5.3 14.2 -1.5 4.1 14.2 -5.0
28/11/2007 315 353 208 6 16 0 10 16 4 53 66 31 6.1 11.8 3.3 5.0 11.7 0.6
29/11/2007 338 357 0 7 23 0 11 23 0 59 81 31 4.8 11.9 -0.7 3.4 11.6 -3.5
3/12/2007 338 357 0 10 23 0 16 23 6 74 86 56 6.7 9.2 4.3 4.7 8.7 1.1
4/12/2007 315 357 0 6 18 0 12 18 0 73 98 36 7.0 14.7 1.6 5.8 14.7 -2.9
5/12/2007 338 357 0 8 24 0 12 24 0 66 94 34 6.8 14.5 0.4 5.5 14.5 -2.2
6/12/2007 315 357 0 9 25 0 14 25 4 66 92 35 7.6 14.7 3.0 6.0 14.6 -0.8
7/12/2007 315 357 0 11 29 4 17 29 6 67 98 38 7.1 13.8 2.9 5.1 13.3 -0.9
10/12/2007 315 357 0 7 25 0 12 25 0 39 54 27 6.0 11.3 1.2 4.7 10.8 -1.9
11/12/2007 315 357 0 9 32 0 14 32 0 47 69 26 3.5 10.3 -1.0 1.4 10.3 -5.5
13/12/2007 90 357 0 5 15 0 9 15 0 51 67 29 4.2 9.8 0.2 2.9 9.8 -3.0
14/12/2007 90 357 0 4 13 0 7 13 0 59 78 33 2.7 9.2 -2.9 1.7 9.2 -4.5
15/12/2007 315 357 0 8 25 0 12 25 0 58 89 29 0.4 7.9 -5.4 -2.0 6.8 -10.8
16/12/2007 68 357 0 6 18 0 10 18 0 60 82 30 2.4 7.9 -1.0 0.9 7.8 -3.9
17/12/2007 68 357 0 4 13 0 8 13 0 73 89 45 1.6 6.0 -1.7 0.4 6.0 -5.2
18/12/2007 68 357 0 7 18 0 12 18 0 81 92 53 4.5 6.9 2.8 3.1 6.8 -0.7
19/12/2007 90 357 0 12 29 4 19 29 8 68 90 49 5.6 8.4 3.6 3.1 7.7 -0.6
20/12/2007 90 357 0 12 28 4 19 28 5 77 86 61 7.2 8.9 5.7 5.0 7.9 1.9
21/12/2007 90 357 12 8 19 0 12 19 0 78 93 50 8.5 12.8 6.3 7.2 12.6 4.1
22/12/2007 68 129 13 7 14 0 11 14 0 84 92 74 7.9 9.4 7.1 6.9 9.4 4.6
23/12/2007 90 147 7 2 13 0 4 13 0 80 87 61 7.8 10.0 6.5 7.6 9.7 5.7
24/12/2007 68 348 6 0 6 0 2 6 0 72 87 45 6.9 11.0 3.1 6.9 11.0 1.9
25/12/2007 315 357 0 3 21 0 7 21 0 72 89 37 4.1 10.7 -0.7 3.6 10.7 -3.0
26/12/2007 90 357 0 4 20 0 8 20 0 62 76 37 5.8 10.3 3.3 5.2 10.0 1.2
2/1/2008 90 357 1 9 21 0 15 21 6 77 84 66 6.3 8.5 4.8 4.4 7.6 2.1
3/1/2008 292 357 0 12 38 0 16 38 0 70 83 47 6.4 9.3 3.9 4.3 8.1 0.8
4/1/2008 292 353 0 9 18 0 10 18 0 72 98 39 4.6 9.1 1.6 2.6 7.0 -2.2
5/1/2008 292 357 0 11 24 4 12 24 5 71 86 41 5.7 11.1 1.4 3.7 9.5 -0.6
6/1/2008 338 349 258 10 18 0 11 18 0 82 98 62 9.9 12.4 7.9 8.6 11.7 6.4
7/1/2008 315 348 308 10 12 9 10 12 9 67 80 44 9.6 13.7 5.7 8.1 12.8 3.1
8/1/2008 338 348 348 12 12 12 12 12 12 80 92 60 7.1 11.2 4.4 4.8 9.7 1.5
9/1/2008 338 348 348 12 12 12 12 12 12 82 97 56 8.1 11.7 4.6 5.9 10.4 1.7
10/1/2008 338 348 348 12 12 12 12 12 12 72 94 47 9.4 12.7 6.4 7.5 11.6 3.9
11/1/2008 338 353 0 15 42 0 16 42 12 64 85 36 8.1 13.0 2.8 5.7 11.9 -0.8
12/1/2008 270 353 1 8 28 0 10 28 0 60 83 38 2.9 8.2 -1.0 1.0 7.9 -4.4
13/1/2008 315 357 7 2 20 0 4 20 0 55 79 27 3.0 10.6 -3.6 2.8 10.0 -3.6
14/1/2008 315 357 1 5 21 0 9 21 0 64 82 41 6.9 9.7 2.8 6.1 9.4 2.8
15/1/2008 270 357 0 7 33 0 13 33 0 69 95 40 5.6 10.1 1.2 4.5 9.8 -0.7
16/1/2008 292 357 0 18 43 0 28 43 6 62 92 33 8.6 12.5 3.9 6.0 11.0 0.2
17/1/2008 292 357 0 9 29 0 16 29 0 70 89 38 5.9 11.6 1.3 4.3 11.0 -0.9
18/1/2008 292 357 0 9 26 0 13 26 0 71 87 47 8.5 12.8 5.4 7.2 12.3 3.2
19/1/2008 68 357 5 3 13 0 5 13 0 64 92 30 8.3 16.6 2.0 8.2 16.6 0.2
20/1/2008 90 353 1 0 6 0 1 6 0 62 78 35 7.8 15.2 1.1 7.8 15.2 1.1
21/1/2008 315 357 0 5 21 0 8 21 0 66 89 34 7.8 16.1 1.0 7.4 16.0 0.0
22/1/2008 315 357 0 10 26 0 15 26 4 56 91 25 8.9 16.9 2.4 7.4 16.8 -1.5
23/1/2008 315 357 0 7 18 0 11 18 0 51 76 29 7.7 14.5 0.9 6.6 14.4 -1.9
24/1/2008 90 148 10 6 17 0 10 17 0 58 78 35 8.8 14.2 5.6 7.8 14.2 3.0
25/1/2008 68 357 0 7 18 0 11 18 0 57 82 27 9.1 13.7 5.4 8.2 13.7 3.1
26/1/2008 68 357 0 6 15 0 10 15 0 58 86 32 6.7 12.9 1.6 5.6 12.9 -1.5
27/1/2008 90 357 0 3 13 0 6 13 0 58 89 26 6.7 13.1 3.4 6.3 13.1 0.7
28/1/2008 338 357 0 2 9 0 4 9 0 44 66 19 6.1 15.1 -1.0 5.8 15.1 -2.8
29/1/2008 315 357 0 4 20 0 7 20 0 39 58 19 6.4 15.8 -0.7 6.0 15.6 -2.6
30/1/2008 315 357 0 6 23 0 10 23 0 46 74 24 6.3 14.7 0.4 5.4 14.6 -1.7
31/1/2008 338 357 0 4 17 0 8 17 0 41 59 25 5.1 13.5 -1.0 4.5 13.5 -3.4
1/2/2008 315 357 0 5 30 0 9 30 0 42 56 26 5.4 14.1 -1.1 4.8 13.9 -3.2
2/2/2008 338 357 0 6 17 0 9 17 0 59 80 39 5.7 10.1 1.7 4.6 10.1 -1.5
3/2/2008 68 357 0 7 26 0 11 26 0 52 81 25 7.5 14.9 2.0 6.7 14.9 -0.1
4/2/2008 292 357 0 14 32 0 22 32 4 52 83 32 8.9 12.3 5.4 6.9 11.9 1.0
5/2/2008 315 357 0 6 21 0 10 21 0 55 88 30 7.6 14.2 1.1 6.9 14.2 -1.8
6/2/2008 338 357 0 3 13 0 6 13 0 54 86 22 6.7 15.4 -0.2 6.1 15.4 -3.4
7/2/2008 68 357 0 6 20 0 10 20 4 42 67 21 8.4 16.2 1.5 7.6 16.2 -0.3
8/2/2008 68 357 0 8 20 0 13 20 4 43 70 16 8.9 17.1 2.7 7.7 17.1 0.0
9/2/2008 68 357 0 8 21 0 14 21 4 56 84 25 7.0 13.5 1.8 5.5 13.5 -1.9
13/2/2008 68 345 4 15 29 4 23 29 9 54 77 33 7.6 10.6 5.5 5.1 9.7 1.7
14/2/2008 90 357 0 13 29 5 21 29 6 69 77 58 7.5 9.2 6.0 5.1 7.7 2.2
15/2/2008 90 357 0 7 20 0 11 20 0 56 76 34 9.1 13.5 5.9 8.2 13.5 4.0
16/2/2008 68 357 0 7 21 0 11 21 0 58 83 33 7.0 13.3 0.7 6.0 13.3 -1.3
17/2/2008 90 357 0 13 29 4 19 29 5 56 86 35 6.8 10.6 3.7 4.4 9.7 -0.0
18/2/2008 90 353 0 10 20 4 12 20 6 88 96 70 7.5 10.3 5.0 5.6 9.7 2.0
19/2/2008 68 357 0 6 15 0 8 15 0 87 96 61 9.1 11.4 7.9 8.3 11.4 5.9
20/2/2008 315 357 0 6 17 0 9 17 0 73 94 38 10.6 14.9 8.3 10.0 14.9 6.0
21/2/2008 90 353 1 7 17 0 10 17 0 69 92 37 10.3 14.8 7.2 9.6 14.8 6.4
22/2/2008 90 346 1 6 18 0 7 18 4 64 91 26 9.2 17.2 4.3 8.7 17.2 3.3
23/2/2008 68 357 0 8 18 0 11 18 5 60 82 35 8.7 14.3 4.0 7.4 14.3 2.0
24/2/2008 90 131 26 9 16 0 11 16 5 80 91 65 8.4 9.8 7.0 7.0 9.2 4.1
25/2/2008 68 357 0 1 10 0 4 10 0 77 93 46 10.5 15.0 8.3 10.3 15.0 6.6
27/2/2008 68 344 341 0 9 0 0 9 0 51 53 50 11.6 11.7 11.2 11.6 11.7 10.3
28/2/2008 338 357 0 4 19 0 7 19 0 66 89 35 11.7 16.6 8.6 11.5 16.6 7.9
29/2/2008 292 357 1 3 14 0 6 14 0 64 88 24 11.4 18.6 7.5 11.3 18.6 5.9
1/3/2008 315 357 235 7 20 0 9 20 0 56 84 24 11.4 19.7 5.0 11.0 19.7 2.8
2/3/2008 292 353 0 4 10 0 6 10 0 48 74 23 12.8 20.7 5.4 12.5 20.7 4.2
3/3/2008 338 350 56 4 13 0 5 13 0 46 78 23 13.8 21.8 6.1 13.7 21.8 6.1
4/3/2008 315 357 0 11 37 0 14 37 0 34 58 17 9.0 14.0 3.1 7.6 13.2 -1.2
5/3/2008 338 357 0 13 46 0 21 46 0 30 52 19 3.6 9.9 -2.2 0.7 9.0 -6.8
6/3/2008 338 357 0 10 32 0 18 32 4 28 45 17 4.5 13.3 -3.2 2.2 12.6 -8.3
7/3/2008 315 357 0 14 41 0 23 41 4 27 45 16 7.5 17.7 -0.6 5.3 17.7 -5.4
8/3/2008 315 357 0 8 21 0 12 21 0 24 33 16 9.2 17.9 1.4 8.3 17.9 -1.4
9/3/2008 315 357 0 11 30 0 16 30 0 35 61 25 9.2 16.0 2.7 7.9 15.8 -0.5
10/3/2008 315 357 0 17 46 0 25 46 4 41 66 25 8.3 13.8 3.0 6.1 12.7 0.3
11/3/2008 292 357 0 15 35 0 22 35 4 44 68 23 14.0 20.0 10.1 12.9 20.0 7.0
14/3/2008 315 357 22 0 0 0 0 0 0 21 25 15 20.2 24.4 14.9 20.2 24.4 14.9
18/3/2008 315 357 0 12 29 0 19 29 4 41 78 22 10.6 15.5 5.3 9.1 15.5 1.8
19/3/2008 315 357 0 5 21 0 9 21 0 35 55 15 9.9 18.1 2.0 9.2 18.1 -1.1
22/3/2008 90 357 0 10 24 0 18 24 0 82 85 78 3.5 4.7 2.4 1.0 3.2 -1.9
23/3/2008 315 357 0 15 41 4 23 41 5 49 84 24 3.5 9.8 -0.2 0.2 8.4 -5.8
24/3/2008 315 357 0 13 37 0 20 37 0 38 58 22 7.0 15.4 0.2 4.7 15.2 -4.5
25/3/2008 315 357 0 10 30 0 15 30 0 42 74 18 9.9 18.9 1.9 8.8 18.9 -1.0
26/3/2008 292 357 0 15 41 0 23 41 4 44 72 28 9.5 14.2 4.5 7.6 13.5 2.1
27/3/2008 292 357 0 21 52 5 30 52 9 43 56 34 10.0 16.0 3.6 7.6 15.4 -1.0
28/3/2008 315 357 0 11 28 0 17 28 0 40 80 14 13.5 22.1 5.3 12.7 22.1 2.4
29/3/2008 90 357 0 8 25 0 14 25 0 39 69 23 13.5 20.1 7.9 13.2 20.1 6.6
30/3/2008 68 357 0 13 43 0 21 43 0 41 77 15 12.9 20.7 7.8 12.1 20.7 3.9
31/3/2008 315 357 0 13 37 0 21 37 4 43 72 16 9.1 16.8 2.1 7.2 16.7 -2.5
1/4/2008 315 357 0 9 36 0 16 36 0 33 51 23 11.1 19.0 2.6 10.2 19.0 -0.1
2/4/2008 315 357 0 3 12 0 6 12 0 34 66 13 13.8 23.3 3.7 13.6 23.3 1.8
3/4/2008 90 357 0 2 14 0 6 14 0 25 50 12 15.9 26.3 5.4 15.9 26.3 4.3
4/4/2008 68 357 0 6 21 0 11 21 0 27 47 13 15.2 24.2 8.9 15.0 24.2 7.3
5/4/2008 68 357 0 7 25 0 12 25 0 32 55 13 14.7 25.4 6.4 14.1 25.4 4.4
6/4/2008 292 357 0 7 29 0 12 29 0 24 41 12 16.9 26.6 7.2 16.9 26.6 6.5
7/4/2008 270 357 0 10 43 0 19 43 0 35 50 17 15.5 20.6 11.2 15.2 20.6 10.4
8/4/2008 270 357 0 10 35 0 19 35 0 48 80 25 12.8 17.5 7.9 11.9 17.4 5.1
9/4/2008 270 357 0 15 48 0 28 48 0 64 91 37 13.9 18.0 11.9 12.9 18.0 9.4
10/4/2008 270 357 0 14 47 0 25 47 0 49 81 23 14.1 20.0 10.2 13.2 20.0 7.0
11/4/2008 292 357 0 15 32 0 23 32 4 56 78 34 8.5 12.3 5.6 6.2 11.1 1.6
12/4/2008 315 357 0 9 24 0 14 24 0 54 87 22 8.6 16.2 1.7 7.3 15.9 -1.4
13/4/2008 315 357 0 10 27 0 15 27 0 45 66 20 10.1 18.6 4.3 9.2 18.6 2.3
14/4/2008 338 357 0 8 22 0 12 22 4 42 81 15 12.4 20.7 6.3 11.9 20.7 4.2
15/4/2008 68 357 0 8 25 0 13 25 0 31 56 14 13.4 23.4 5.3 12.8 23.4 2.7
23/4/2008 315 353 0 6 18 0 11 18 0 27 44 20 20.9 25.6 15.1 20.9 25.6 15.1
24/4/2008 315 357 0 4 14 0 8 14 0 38 72 12 18.1 29.0 9.6 18.1 29.0 8.4
25/4/2008 68 357 0 7 21 0 12 21 0 29 53 14 19.2 27.4 11.7 19.1 27.4 10.2
26/4/2008 68 357 0 4 16 0 8 16 0 23 46 10 20.0 31.3 10.1 20.0 31.3 10.1
27/4/2008 68 357 0 7 16 0 10 16 0 20 36 12 20.3 30.9 10.8 20.2 30.9 9.6
28/4/2008 270 357 0 10 35 0 15 35 0 26 40 13 18.8 25.7 12.6 18.8 25.7 12.0
29/4/2008 315 357 0 9 28 0 15 28 0 29 51 12 14.9 26.0 5.9 14.5 26.0 3.9
30/4/2008 315 357 0 10 24 0 17 24 0 30 58 14 14.2 22.6 7.1 13.5 22.6 5.2
1/5/2008 45 357 0 6 21 0 11 21 0 26 41 12 16.1 27.5 7.0 16.0 27.5 5.8
2/5/2008 68 357 0 9 21 0 14 21 4 35 72 11 17.4 28.4 9.0 17.1 28.4 7.2
3/5/2008 68 357 0 7 18 0 12 18 5 23 30 12 16.5 26.8 10.6 16.2 26.8 9.0
4/5/2008 68 357 0 7 26 0 12 26 0 22 33 12 20.6 32.9 12.5 20.5 32.9 11.6
5/5/2008 68 357 0 4 22 0 9 22 0 27 44 12 21.8 32.4 13.6 21.8 32.4 13.3
6/5/2008 68 357 0 6 18 0 11 18 0 22 39 13 21.5 31.0 15.0 21.5 31.0 15.0
7/5/2008 68 357 0 12 26 0 18 26 6 37 65 19 18.0 28.7 11.9 17.7 28.7 10.5
8/5/2008 90 353 3 8 23 0 12 23 0 65 82 43 13.7 15.6 12.3 13.2 15.5 10.6
9/5/2008 68 357 7 5 18 0 7 18 0 68 83 36 13.3 17.7 11.3 13.1 17.7 10.3
10/5/2008 292 357 0 11 27 0 18 27 0 71 88 53 9.6 12.5 8.6 8.0 12.5 5.1
11/5/2008 315 357 0 2 18 0 6 18 0 64 93 24 12.7 19.7 8.8 12.4 19.7 6.4
16/5/2008 315 334 5 3 8 0 6 8 0 74 75 72 12.7 13.1 12.0 12.6 13.1 11.8
18/5/2008 292 353 138 18 27 6 20 27 9 50 73 22 15.1 21.6 10.6 13.9 21.6 8.1
23/5/2008 315 353 0 11 21 6 19 21 9 54 59 52 13.4 13.5 13.2 12.6 13.3 11.6
24/5/2008 292 357 0 9 27 0 15 27 0 38 73 15 17.0 24.0 12.1 16.9 24.0 11.3
26/5/2008 315 340 39 4 9 0 7 9 0 27 32 24 16.9 17.9 16.2 16.9 17.9 16.2
27/5/2008 292 357 0 10 27 0 15 27 4 34 63 15 16.4 24.9 10.1 16.1 24.9 8.6
28/5/2008 270 357 0 8 25 0 13 25 0 38 59 23 15.0 21.0 10.7 14.9 21.0 10.0
29/5/2008 315 357 0 11 29 0 16 29 4 43 71 22 15.3 23.2 9.1 15.0 23.2 7.2
30/5/2008 315 357 0 4 19 0 7 19 0 48 76 22 17.0 23.8 11.8 17.0 23.8 11.0
1/6/2008 270 357 0 9 21 0 13 21 4 49 62 34 16.5 19.2 14.2 16.4 19.2 13.6
2/6/2008 315 357 0 7 27 0 12 27 0 45 79 14 17.5 27.3 11.0 17.5 27.3 11.0
3/6/2008 338 357 0 3 10 0 4 10 0 35 67 13 19.8 30.3 11.4 19.8 30.3 11.4
4/6/2008 270 357 0 5 12 0 7 12 0 32 56 13 21.3 31.8 14.0 21.3 31.8 13.4
5/6/2008 338 329 329 4 4 4 4 4 4 31 50 14 20.7 28.5 14.6 20.7 28.5 14.6
6/6/2008 315 357 0 5 12 0 5 12 4 33 67 9 19.6 33.2 9.4 19.6 33.2 9.3
7/6/2008 90 357 0 6 18 0 8 18 0 26 42 11 20.6 30.3 13.1 20.6 30.3 13.1
8/6/2008 68 154 15 6 16 0 7 16 4 44 81 22 16.6 24.5 11.6 16.6 24.5 10.5
9/6/2008 68 81 74 3 6 0 5 10 0 74 81 72 11.7 12.0 11.5 11.7 12.0 11.3
10/6/2008 90 357 18 2 10 0 3 10 0 75 89 49 13.3 18.2 9.8 13.3 18.2 9.6
11/6/2008 68 345 18 0 5 0 0 5 0 60 88 22 16.6 24.9 10.9 16.6 24.9 10.9
18/6/2008 45 338 14 7 10 4 9 10 4 29 35 22 23.9 26.1 21.7 23.9 26.1 21.7
19/6/2008 90 343 0 6 12 0 7 12 0 28 55 11 26.7 36.5 16.9 26.7 36.5 16.9
20/6/2008 0 49 0 6 9 5 6 9 5 12 23 10 32.0 38.2 23.4 32.0 38.2 23.4
21/6/2008 45 344 24 7 12 4 8 12 5 19 33 10 26.9 37.4 18.8 26.9 37.4 18.8
22/6/2008 90 139 29 9 18 4 9 18 4 21 38 11 25.9 36.8 16.6 25.9 36.8 16.6
23/6/2008 270 357 23 9 21 0 9 21 4 21 34 11 26.0 35.6 18.4 26.0 35.6 18.4
24/6/2008 315 357 0 11 25 0 15 25 4 27 52 11 25.2 35.5 17.0 25.1 35.5 17.0
25/6/2008 45 357 17 3 13 0 3 13 0 24 44 9 28.1 41.6 18.0 28.1 41.6 18.0
26/6/2008 45 120 35 7 13 0 7 13 0 24 47 9 29.2 40.8 19.8 29.2 40.8 19.8
1/7/2008 45 357 0 8 23 0 16 23 0 10 13 9 35.1 40.6 25.2 35.1 40.6 25.2
2/7/2008 315 357 0 8 35 0 14 35 0 14 18 10 27.1 37.5 18.5 27.1 37.5 18.5
3/7/2008 315 357 0 10 26 0 16 26 0 19 31 11 24.2 34.4 16.1 24.2 34.4 15.6
4/7/2008 68 357 0 8 25 0 12 25 0 23 38 9 26.5 41.2 16.7 26.5 41.2 16.4
5/7/2008 315 357 0 6 27 0 11 27 0 26 63 9 28.4 41.0 17.6 28.4 41.0 17.6
6/7/2008 292 357 0 11 37 0 17 37 4 19 35 11 27.0 36.1 19.7 27.0 36.1 19.7
7/7/2008 315 357 0 10 28 0 15 28 4 17 30 11 24.7 36.9 14.7 24.7 36.9 14.5
8/7/2008 45 357 0 8 25 0 15 25 0 31 70 14 25.5 35.5 15.9 25.5 35.5 15.9
9/7/2008 90 357 0 7 25 0 10 25 0 33 65 9 27.3 39.5 18.9 27.3 39.5 18.9
10/7/2008 68 357 0 7 23 0 11 23 0 25 51 9 28.1 40.2 18.2 28.1 40.2 18.2
11/7/2008 315 357 0 10 28 0 15 28 0 13 18 10 27.3 38.4 18.2 27.3 38.4 18.2
12/7/2008 315 357 0 9 33 0 15 33 0 21 35 11 24.6 32.3 18.2 24.6 32.3 18.2
13/7/2008 338 357 0 6 21 0 11 21 0 21 41 11 23.3 35.8 13.4 23.3 35.8 13.1
14/7/2008 90 357 0 8 21 0 14 21 0 30 47 16 22.7 30.2 16.8 22.7 30.2 16.5
15/7/2008 68 357 0 8 21 0 15 21 4 36 64 12 23.0 33.8 16.2 23.0 33.8 15.9
17/7/2008 90 357 0 4 17 0 9 17 0 18 31 11 29.2 36.0 22.2 29.2 36.0 22.2
18/7/2008 68 357 0 6 14 0 10 14 0 28 51 9 27.1 40.0 18.0 27.1 40.0 18.0
19/7/2008 90 357 0 10 29 0 17 29 4 30 59 11 26.9 36.1 19.0 26.9 36.1 19.0
20/7/2008 270 357 0 7 26 0 13 26 0 20 34 9 29.4 39.9 21.3 29.4 39.9 21.3
21/7/2008 315 357 0 6 25 0 12 25 0 18 41 9 28.6 40.5 19.0 28.6 40.5 19.0
22/7/2008 68 357 0 8 21 0 14 21 0 34 59 9 27.7 40.4 21.1 27.7 40.4 21.1
23/7/2008 68 357 0 8 21 0 13 21 0 28 54 8 28.4 42.4 18.9 28.4 42.4 18.9
24/7/2008 90 357 0 8 27 0 14 27 0 22 42 9 29.0 39.2 21.4 29.0 39.2 21.4
25/7/2008 315 357 0 10 30 0 16 30 0 14 22 11 26.5 36.4 17.6 26.5 36.4 17.6
27/7/2008 315 357 0 8 27 0 15 27 0 11 16 9 34.5 40.6 27.9 34.5 40.6 27.9
28/7/2008 338 357 0 9 25 0 14 25 0 16 43 10 28.4 38.9 20.1 28.4 38.9 20.1
29/7/2008 315 357 0 7 23 0 13 23 0 19 33 9 27.8 39.8 19.3 27.8 39.8 19.3
30/7/2008 90 357 0 6 20 0 11 20 0 25 66 9 28.9 41.4 19.4 28.9 41.4 19.4
31/7/2008 338 357 0 7 26 0 12 26 0 18 36 9 27.9 39.0 17.9 27.9 39.0 17.9
1/8/2008 315 357 0 9 28 0 15 28 0 17 35 10 27.5 37.4 19.4 27.5 37.4 19.4
2/8/2008 68 357 0 8 21 0 14 21 4 32 66 12 27.9 38.2 20.9 27.9 38.2 20.9
3/8/2008 68 357 0 9 26 4 16 26 5 28 55 11 28.0 36.8 20.5 28.0 36.8 20.5
4/8/2008 68 357 0 6 16 0 10 16 0 18 39 8 30.6 42.0 20.5 30.6 42.0 20.5
5/8/2008 45 357 0 6 27 0 12 27 0 17 31 9 30.7 40.9 22.5 30.7 40.9 22.5
6/8/2008 68 357 0 6 26 0 11 26 0 18 36 9 29.9 41.1 21.5 29.9 41.1 21.5
7/8/2008 315 357 0 8 32 0 14 32 0 13 19 10 29.3 38.6 21.9 29.3 38.6 21.9
8/8/2008 315 357 0 6 18 0 11 18 0 15 44 10 26.6 38.2 18.4 26.6 38.2 18.4
9/8/2008 45 357 0 7 20 0 13 20 0 33 68 9 28.5 39.3 20.7 28.5 39.3 20.7
10/8/2008 90 357 0 6 24 0 12 24 0 32 66 9 28.9 40.6 20.1 28.8 40.6 20.1
11/8/2008 270 357 0 9 36 0 16 36 0 16 30 10 29.2 38.2 21.9 29.2 38.2 21.9
12/8/2008 292 357 0 12 40 0 19 40 0 23 43 11 26.2 34.3 19.7 26.2 34.3 19.7
17/8/2008 315 357 0 7 21 0 14 21 0 15 24 11 29.6 34.4 22.6 29.6 34.4 22.6
18/8/2008 45 357 0 7 23 0 12 23 0 26 60 11 25.9 36.3 18.2 25.9 36.3 18.2
19/8/2008 90 357 0 7 25 0 11 25 0 25 45 11 25.2 35.4 19.4 25.2 35.4 19.4
20/8/2008 90 357 0 3 21 0 7 21 0 20 59 11 25.7 35.7 17.1 25.6 35.3 17.1
21/8/2008 68 357 0 7 21 0 13 21 0 37 70 11 26.6 36.7 19.2 26.6 36.7 19.2
22/8/2008 90 357 0 7 24 0 12 24 0 31 54 11 27.4 36.6 19.9 27.4 36.6 19.9
31/8/2008 315 353 0 9 26 0 14 26 0 22 37 13 23.7 30.7 15.6 23.7 30.7 15.4
1/9/2008 68 357 0 4 18 0 6 18 0 24 43 12 23.6 33.2 14.9 23.6 33.2 14.9
2/9/2008 68 357 0 7 25 0 11 25 0 33 67 11 25.4 34.1 18.7 25.4 34.1 18.7
3/9/2008 292 357 0 9 30 0 15 30 0 17 26 11 24.0 31.8 16.9 24.0 31.8 16.8
4/9/2008 270 357 0 9 33 0 15 33 0 19 33 11 23.4 32.5 15.8 23.4 32.5 15.8
5/9/2008 270 357 0 11 37 0 20 37 0 29 49 17 22.1 27.8 17.4 22.1 27.8 16.9
6/9/2008 270 357 0 10 30 0 16 30 0 49 75 29 18.8 22.7 15.5 18.8 22.7 15.5
7/9/2008 315 357 0 5 23 0 9 23 0 44 74 19 19.3 28.7 11.4 19.3 28.7 11.2
8/9/2008 68 357 0 11 29 4 16 29 5 42 62 21 22.8 29.3 18.1 22.8 29.3 18.1
9/9/2008 68 123 48 8 15 4 9 15 4 46 65 22 22.6 29.6 18.2 22.6 29.6 18.2
11/9/2008 90 346 225 10 21 4 14 21 6 25 31 19 24.3 28.1 20.5 24.3 28.1 20.5
12/9/2008 338 357 0 10 28 0 16 28 0 26 45 13 19.1 25.0 13.8 19.1 25.0 13.1
13/9/2008 338 357 0 6 25 0 10 25 0 23 40 13 17.2 25.8 7.9 17.2 25.8 7.1
20/9/2008 90 339 8 5 21 0 6 21 0 29 61 18 26.2 30.6 19.9 26.2 30.6 19.9
21/9/2008 292 353 22 3 21 0 4 21 0 49 78 19 22.1 30.2 17.6 22.1 30.2 17.6
22/9/2008 338 357 0 8 25 0 13 25 0 56 80 25 18.8 23.8 16.1 18.7 23.8 15.6
23/9/2008 315 357 0 5 18 0 10 18 0 54 83 25 18.5 24.8 13.7 18.5 24.8 13.5
24/9/2008 68 357 0 5 15 0 10 15 0 55 75 31 18.5 24.1 15.7 18.5 24.1 14.9
25/9/2008 68 357 0 5 15 0 9 15 0 57 67 45 16.0 18.4 14.5 16.0 18.4 14.0
26/9/2008 68 357 15 5 17 0 9 17 0 53 75 24 16.4 22.1 13.6 16.4 22.1 12.6
27/9/2008 90 357 4 8 18 0 11 18 4 47 58 29 15.9 20.0 14.0 15.8 20.0 13.4
28/9/2008 68 149 5 7 14 0 11 14 4 59 73 58 14.1 15.1 14.0 13.9 15.1 13.0
29/9/2008 68 357 0 5 13 0 8 13 0 59 60 36 14.4 16.9 14.2 14.3 16.9 13.3
30/9/2008 225 357 0 2 13 0 3 13 0 31 36 18 18.7 24.4 15.7 18.7 24.4 15.7
1/10/2008 315 357 0 3 18 0 7 18 0 46 48 34 13.4 16.7 12.8 13.2 16.7 11.1
3/10/2008 338 357 0 9 25 0 16 25 0 17 23 15 17.1 21.3 11.7 17.0 21.3 11.7
4/10/2008 338 357 0 3 15 0 7 15 0 24 40 14 13.0 21.4 5.2 13.0 21.4 4.4
5/10/2008 338 357 0 2 16 0 5 16 0 27 58 14 13.9 22.9 5.3 13.9 22.9 5.3
6/10/2008 338 357 0 2 14 0 4 14 0 25 39 14 16.0 25.6 7.2 16.0 25.6 7.2
7/10/2008 338 357 0 6 26 0 11 26 0 26 39 13 17.5 24.7 10.8 17.5 24.7 10.5
8/10/2008 315 357 0 7 23 0 13 23 0 51 85 22 15.0 19.4 12.3 14.9 19.4 10.9
9/10/2008 90 357 0 5 19 0 10 19 0 44 74 23 13.0 19.3 6.7 12.9 19.3 5.3
10/10/2008 90 357 0 10 27 0 17 27 0 72 89 40 15.8 20.6 11.7 15.5 20.6 10.7
11/10/2008 90 357 0 13 32 0 22 32 0 75 89 62 16.5 18.8 15.2 16.0 18.8 13.4
12/10/2008 68 357 0 0 21 0 6 21 0 74 87 38 18.0 23.3 15.1 18.0 23.3 15.1
13/10/2008 90 357 0 2 16 0 5 16 0 76 90 44 15.9 21.0 13.8 15.9 21.0 13.3
14/10/2008 45 357 0 1 12 0 3 12 0 70 93 36 15.9 21.3 11.4 15.9 21.3 10.8
15/10/2008 315 344 18 0 10 0 1 10 0 61 86 31 16.6 22.5 11.7 16.6 22.5 11.7
16/10/2008 315 353 0 5 16 0 7 16 0 53 81 21 16.9 24.0 11.0 16.9 24.0 10.8
17/10/2008 338 353 136 4 18 0 6 18 0 43 61 18 17.5 24.4 12.8 17.5 24.4 12.7
18/10/2008 90 357 0 2 13 0 4 13 0 74 84 53 15.1 16.6 13.8 15.1 16.6 12.8
19/10/2008 90 357 11 6 12 0 9 12 4 82 86 71 14.4 16.1 13.3 14.3 16.1 12.4
21/10/2008 68 313 312 2 5 0 4 5 0 69 70 67 14.4 14.6 14.3 14.4 14.6 14.3
22/10/2008 0 353 55 4 14 0 4 14 0 58 76 35 15.1 18.8 12.5 15.0 18.8 11.6
30/10/2008 68 297 0 10 21 0 10 21 0 72 76 69 9.1 9.4 8.7 7.7 9.1 6.2
31/10/2008 315 357 0 7 26 0 9 26 0 62 76 43 10.8 13.4 9.0 10.1 13.3 6.0
1/11/2008 90 353 42 2 11 0 3 11 0 52 74 37 10.2 13.2 7.2 10.1 13.2 7.2
2/11/2008 315 357 0 8 27 0 12 27 0 66 84 38 8.4 12.1 5.8 7.2 11.7 1.6
3/11/2008 135 342 32 0 6 0 1 6 0 65 89 36 7.2 12.4 2.6 7.2 12.4 2.6
4/11/2008 292 357 0 7 24 0 10 24 0 59 80 40 7.7 10.8 4.8 6.6 9.9 2.9
5/11/2008 315 357 0 9 21 0 14 21 4 64 87 36 7.7 12.0 5.4 6.2 11.7 2.4
6/11/2008 315 357 0 9 23 0 14 23 0 55 77 29 8.7 14.4 3.6 7.3 14.4 0.5
7/11/2008 315 357 0 5 17 0 10 17 0 60 82 30 9.5 16.4 4.3 9.1 16.4 3.2
8/11/2008 315 357 0 5 18 0 9 18 0 61 86 29 10.6 16.0 6.4 10.3 16.0 6.3
9/11/2008 315 357 0 1 9 0 4 9 0 58 83 28 8.2 15.5 2.5 8.1 15.5 0.8
10/11/2008 68 357 0 2 12 0 4 12 0 58 76 34 8.7 16.2 2.9 8.6 16.2 2.9
Date Wind Dir Hi Lo Wind Spd Hi Lo Wind Gust Hi Lo Humidity Hi Lo Temp Hi Lo Wind Chill Hi Lo
° ° ° km/hr km/hr km/hr km/hr km/hr km/hr % % % °C °C °C °C °C °C
Date Tot Rain Hi Lo
mm mm mm
11/11/2008 0.00 0.00 0.00
12/11/2008 0.00 0.00 0.00
13/11/2008 0.00 0.00 0.00
14/11/2008 0.00 0.00 0.00
15/11/2008 0.00 0.00 0.00
16/11/2008 0.00 0.00 0.00
17/11/2008 0.00 0.00 0.00
18/11/2008 0.00 0.00 0.00
19/11/2008 0.00 0.00 0.00
20/11/2008 0.00 0.00 0.00
21/11/2008 0.00 0.00 0.00
22/11/2008 0.00 0.00 0.00
24/11/2008 0.86 4.00 0.00
25/11/2008 4.00 4.00 4.00
26/11/2008 4.00 4.00 4.00
27/11/2008 4.00 4.00 4.00
29/11/2008 7.00 7.00 7.00
30/11/2008 7.00 7.00 7.00
1/12/2008 7.28 8.00 7.00
3/12/2008 8.59 10.00 8.00
4/12/2008 10.00 10.00 10.00
5/12/2008 10.00 10.00 10.00
8/12/2008 15.33 16.00 15.00
9/12/2008 16.86 18.00 16.00
10/12/2008 18.00 18.00 18.00
11/12/2008 18.00 18.00 18.00
13/12/2008 18.00 18.00 18.00
14/12/2008 18.00 18.00 18.00
15/12/2008 18.00 18.00 18.00
16/12/2008 18.00 18.00 18.00
17/12/2008 18.00 18.00 18.00
18/12/2008 18.00 18.00 18.00
20/12/2008 18.00 18.00 18.00
25/12/2008 18.00 18.00 18.00
26/12/2008 18.00 18.00 18.00
27/12/2008 18.00 18.00 18.00
28/12/2008 18.00 18.00 18.00
29/12/2008 18.00 18.00 18.00
30/12/2008 18.00 18.00 18.00
31/12/2008 18.00 18.00 18.00
1/1/2009 18.00 18.00 18.00
2/1/2009 18.00 18.00 18.00
3/1/2009 20.29 28.00 18.00
4/1/2009 34.22 37.00 28.00
6/1/2009 37.00 37.00 37.00
7/1/2009 37.00 37.00 37.00
8/1/2009 37.00 37.00 37.00
9/1/2009 38.24 40.00 37.00
10/1/2009 40.00 40.00 40.00
11/1/2009 40.00 40.00 40.00
12/1/2009 40.00 40.00 40.00
13/1/2009 40.00 40.00 40.00
14/1/2009 40.00 40.00 40.00
15/1/2009 40.00 40.00 40.00
16/1/2009 40.00 40.00 40.00
17/1/2009 40.00 40.00 40.00
18/1/2009 40.00 40.00 40.00
19/1/2009 40.00 40.00 40.00
20/1/2009 40.00 40.00 40.00
21/1/2009 40.00 40.00 40.00
22/1/2009 40.00 40.00 40.00
23/1/2009 40.00 40.00 40.00
24/1/2009 40.00 40.00 40.00
25/1/2009 40.00 40.00 40.00
26/1/2009 40.00 40.00 40.00
27/1/2009 40.00 40.00 40.00
28/1/2009 40.00 40.00 40.00
29/1/2009 40.00 40.00 40.00
30/1/2009 40.00 40.00 40.00
31/1/2009 46.01 50.00 40.00
1/2/2009 53.36 57.00 50.00
2/2/2009 57.36 58.00 57.00
3/2/2009 58.97 59.00 58.00
4/2/2009 59.00 59.00 59.00
5/2/2009 59.44 61.00 59.00
6/2/2009 61.00 61.00 61.00
7/2/2009 61.00 61.00 61.00
8/2/2009 61.00 61.00 61.00
9/2/2009 61.00 61.00 61.00
10/2/2009 61.00 61.00 61.00
11/2/2009 61.00 61.00 61.00
12/2/2009 61.00 61.00 61.00
14/2/2009 61.00 61.00 61.00
15/2/2009 61.00 61.00 61.00
16/2/2009 61.00 61.00 61.00
17/2/2009 61.00 61.00 61.00
18/2/2009 61.00 61.00 61.00
19/2/2009 61.00 61.00 61.00
20/2/2009 61.00 61.00 61.00
21/2/2009 61.00 61.00 61.00
22/2/2009 61.00 61.00 61.00
23/2/2009 61.00 61.00 61.00
24/2/2009 61.00 61.00 61.00
25/2/2009 61.00 61.00 61.00
26/2/2009 61.00 61.00 61.00
27/2/2009 61.00 61.00 61.00
28/2/2009 61.72 62.00 61.00
1/3/2009 62.36 63.00 62.00
2/3/2009 63.46 67.00 63.00
3/3/2009 72.97 79.00 67.00
4/3/2009 79.76 82.00 79.00
5/3/2009 82.67 83.00 82.00
6/3/2009 83.00 83.00 83.00
8/3/2009 83.00 83.00 83.00
9/3/2009 83.00 83.00 83.00
10/3/2009 83.00 83.00 83.00
11/3/2009 83.00 83.00 83.00
12/3/2009 83.00 83.00 83.00
13/3/2009 83.00 83.00 83.00
14/3/2009 83.00 83.00 83.00
15/3/2009 83.00 83.00 83.00
16/3/2009 83.00 83.00 83.00
17/3/2009 83.00 83.00 83.00
18/3/2009 83.00 83.00 83.00
19/3/2009 83.00 83.00 83.00
20/3/2009 83.00 83.00 83.00
21/3/2009 83.00 83.00 83.00
22/3/2009 83.00 83.00 83.00
23/3/2009 83.00 83.00 83.00
24/3/2009 83.00 83.00 83.00
25/3/2009 83.00 83.00 83.00
26/3/2009 83.00 83.00 83.00
27/3/2009 83.00 83.00 83.00
28/3/2009 84.31 87.00 83.00
29/3/2009 91.72 98.00 87.00
30/3/2009 101.25 102.00 98.00
31/3/2009 102.00 102.00 102.00
1/4/2009 102.00 102.00 102.00
2/4/2009 102.00 102.00 102.00
3/4/2009 102.00 102.00 102.00
4/4/2009 102.00 102.00 102.00
5/4/2009 102.00 102.00 102.00
6/4/2009 102.00 102.00 102.00
7/4/2009 102.00 102.00 102.00
8/4/2009 102.00 102.00 102.00
9/4/2009 102.00 102.00 102.00
10/4/2009 102.00 102.00 102.00
11/4/2009 104.93 106.00 102.00
12/4/2009 106.00 106.00 106.00
13/4/2009 106.00 106.00 106.00
14/4/2009 106.00 106.00 106.00
15/4/2009 106.00 106.00 106.00
16/4/2009 106.31 107.00 106.00
17/4/2009 107.00 107.00 107.00
18/4/2009 107.00 107.00 107.00
19/4/2009 112.07 114.00 107.00
20/4/2009 114.38 115.00 114.00
21/4/2009 115.00 115.00 115.00
22/4/2009 115.00 115.00 115.00
23/4/2009 115.00 115.00 115.00
24/4/2009 115.00 115.00 115.00
25/4/2009 115.00 115.00 115.00
26/4/2009 115.00 115.00 115.00
27/4/2009 115.00 115.00 115.00
28/4/2009 115.00 115.00 115.00
29/4/2009 115.00 115.00 115.00
4/5/2009 115.00 115.00 115.00
5/5/2009 115.00 115.00 115.00
6/5/2009 115.00 115.00 115.00
7/5/2009 115.00 115.00 115.00
9/5/2009 115.76 119.00 115.00
10/5/2009 119.69 120.00 119.00
11/5/2009 120.00 120.00 120.00
12/5/2009 120.00 120.00 120.00
13/5/2009 120.00 120.00 120.00
14/5/2009 120.00 120.00 120.00
15/5/2009 120.00 120.00 120.00
16/5/2009 120.00 120.00 120.00
17/5/2009 120.00 120.00 120.00
18/5/2009 120.00 120.00 120.00
19/5/2009 120.00 120.00 120.00
20/5/2009 120.00 120.00 120.00
21/5/2009 120.00 120.00 120.00
22/5/2009 120.00 120.00 120.00
23/5/2009 120.00 120.00 120.00
24/5/2009 120.58 123.00 120.00
25/5/2009 123.00 123.00 123.00
26/5/2009 123.00 123.00 123.00
27/5/2009 123.00 123.00 123.00
28/5/2009 123.00 123.00 123.00
29/5/2009 123.00 123.00 123.00
30/5/2009 123.00 123.00 123.00
31/5/2009 123.00 123.00 123.00
1/6/2009 123.00 123.00 123.00
2/6/2009 123.00 123.00 123.00
3/6/2009 123.00 123.00 123.00
4/6/2009 123.00 123.00 123.00
5/6/2009 123.00 123.00 123.00
6/6/2009 124.44 125.00 123.00
7/6/2009 125.00 125.00 125.00
8/6/2009 125.00 125.00 125.00
9/6/2009 125.00 125.00 125.00
10/6/2009 125.00 125.00 125.00
11/6/2009 125.00 125.00 125.00
12/6/2009 125.00 125.00 125.00
13/6/2009 125.00 125.00 125.00
14/6/2009 125.00 125.00 125.00
15/6/2009 125.00 125.00 125.00
16/6/2009 125.64 126.00 125.00
17/6/2009 126.00 126.00 126.00
18/6/2009 126.00 126.00 126.00
19/6/2009 126.00 126.00 126.00
20/6/2009 126.00 126.00 126.00
21/6/2009 126.00 126.00 126.00
22/6/2009 126.00 126.00 126.00
23/6/2009 126.00 126.00 126.00
24/6/2009 126.00 126.00 126.00
25/6/2009 126.00 126.00 126.00
26/6/2009 126.00 126.00 126.00
27/6/2009 126.00 126.00 126.00
28/6/2009 126.00 126.00 126.00
29/6/2009 126.00 126.00 126.00
30/6/2009 126.00 126.00 126.00
1/7/2009 126.00 126.00 126.00
2/7/2009 126.00 126.00 126.00
3/7/2009 126.00 126.00 126.00
4/7/2009 126.00 126.00 126.00
5/7/2009 126.00 126.00 126.00
6/7/2009 126.00 126.00 126.00
7/7/2009 126.00 126.00 126.00
8/7/2009 126.00 126.00 126.00
9/7/2009 126.00 126.00 126.00
10/7/2009 126.00 126.00 126.00
11/7/2009 126.00 126.00 126.00
12/7/2009 126.00 126.00 126.00
13/7/2009 126.00 126.00 126.00
14/7/2009 126.00 126.00 126.00
15/7/2009 126.00 126.00 126.00
16/7/2009 126.00 126.00 126.00
17/7/2009 126.00 126.00 126.00
18/7/2009 126.00 126.00 126.00
19/7/2009 126.00 126.00 126.00
20/7/2009 126.00 126.00 126.00
21/7/2009 126.00 126.00 126.00
22/7/2009 126.00 126.00 126.00
23/7/2009 126.00 126.00 126.00
24/7/2009 126.00 126.00 126.00
25/7/2009 126.00 126.00 126.00
26/7/2009 126.00 126.00 126.00
27/7/2009 126.00 126.00 126.00
28/7/2009 126.00 126.00 126.00
29/7/2009 126.00 126.00 126.00
30/7/2009 126.00 126.00 126.00
31/7/2009 126.00 126.00 126.00
1/8/2009 126.00 126.00 126.00
2/8/2009 126.00 126.00 126.00
3/8/2009 126.00 126.00 126.00
4/8/2009 126.00 126.00 126.00
5/8/2009 126.00 126.00 126.00
6/8/2009 126.00 126.00 126.00
7/8/2009 126.00 126.00 126.00
8/8/2009 126.00 126.00 126.00
9/8/2009 126.00 126.00 126.00
10/8/2009 126.00 126.00 126.00
11/8/2009 126.00 126.00 126.00
12/8/2009 126.00 126.00 126.00
13/8/2009 127.11 136.00 126.00
14/8/2009 136.00 136.00 136.00
15/8/2009 136.00 136.00 136.00
16/8/2009 136.00 136.00 136.00
17/8/2009 136.00 136.00 136.00
18/8/2009 136.00 136.00 136.00
19/8/2009 136.00 136.00 136.00
20/8/2009 136.00 136.00 136.00
21/8/2009 136.00 136.00 136.00
22/8/2009 136.00 136.00 136.00
23/8/2009 136.00 136.00 136.00
24/8/2009 136.00 136.00 136.00
25/8/2009 136.00 136.00 136.00
26/8/2009 136.00 136.00 136.00
28/8/2009 136.00 136.00 136.00
29/8/2009 136.00 136.00 136.00
1/9/2009 136.00 136.00 136.00
2/9/2009 136.00 136.00 136.00
3/9/2009 136.00 136.00 136.00
4/9/2009 136.00 136.00 136.00
5/9/2009 136.00 136.00 136.00
6/9/2009 136.00 136.00 136.00
7/9/2009 136.00 136.00 136.00
8/9/2009 136.00 136.00 136.00
9/9/2009 136.00 136.00 136.00
10/9/2009 136.00 136.00 136.00
11/9/2009 136.00 136.00 136.00
12/9/2009 136.00 136.00 136.00
13/9/2009 136.40 138.00 136.00
14/9/2009 138.00 138.00 138.00
15/9/2009 138.00 138.00 138.00
16/9/2009 138.00 138.00 138.00
17/9/2009 140.69 146.00 138.00
18/9/2009 146.00 146.00 146.00
19/9/2009 146.00 146.00 146.00
20/9/2009 146.00 146.00 146.00
28/9/2009 146.00 146.00 146.00
29/9/2009 146.64 147.00 146.00
30/9/2009 147.00 147.00 147.00
1/10/2009 147.00 147.00 147.00
2/10/2009 147.00 147.00 147.00
3/10/2009 147.00 147.00 147.00
5/10/2009 147.00 147.00 147.00
6/10/2009 147.00 147.00 147.00
7/10/2009 147.00 147.00 147.00
9/10/2009 147.00 147.00 147.00
10/10/2009 147.00 147.00 147.00
11/10/2009 147.00 147.00 147.00
12/10/2009 147.00 147.00 147.00
13/10/2009 147.00 147.00 147.00
14/10/2009 147.00 147.00 147.00
15/10/2009 147.00 147.00 147.00
16/10/2009 147.00 147.00 147.00
17/10/2009 147.00 147.00 147.00
18/10/2009 147.00 147.00 147.00
19/10/2009 147.00 147.00 147.00
20/10/2009 147.26 154.00 147.00
21/10/2009 155.76 156.00 154.00
22/10/2009 157.83 159.00 156.00
23/10/2009 159.00 159.00 159.00
24/10/2009 159.00 159.00 159.00
25/10/2009 159.00 159.00 159.00
26/10/2009 159.00 159.00 159.00
27/10/2009 159.00 159.00 159.00
28/10/2009 159.00 159.00 159.00
29/10/2009 159.00 159.00 159.00
30/10/2009 159.00 159.00 159.00
31/10/2009 159.00 159.00 159.00
1/11/2009 159.00 159.00 159.00
2/11/2009 159.00 159.00 159.00
3/11/2009 159.00 159.00 159.00
4/11/2009 159.00 159.00 159.00
5/11/2009 159.22 160.00 159.00
6/11/2009 160.00 160.00 160.00
7/11/2009 160.00 160.00 160.00
8/11/2009 160.00 160.00 160.00
9/11/2009 160.00 160.00 160.00
10/11/2009 160.00 160.00 160.00
11/11/2009 160.00 160.00 160.00
12/11/2009 160.00 160.00 160.00
13/11/2009 160.00 160.00 160.00
14/11/2009 160.00 160.00 160.00
15/11/2009 160.00 160.00 160.00
16/11/2009 160.00 160.00 160.00
17/11/2009 160.00 160.00 160.00
18/11/2009 160.00 160.00 160.00
19/11/2009 160.00 160.00 160.00
20/11/2009 160.00 160.00 160.00
21/11/2009 160.00 160.00 160.00
22/11/2009 160.00 160.00 160.00
23/11/2009 160.00 160.00 160.00
24/11/2009 160.00 160.00 160.00
25/11/2009 160.00 160.00 160.00
26/11/2009 160.00 160.00 160.00
27/11/2009 160.00 160.00 160.00
28/11/2009 160.00 160.00 160.00
29/11/2009 160.83 163.00 160.00
30/11/2009 163.00 163.00 163.00
1/12/2009 163.00 163.00 163.00
2/12/2009 164.57 175.00 163.00
3/12/2009 176.58 177.00 175.00
4/12/2009 177.00 177.00 177.00
5/12/2009 177.00 177.00 177.00
6/12/2009 177.00 177.00 177.00
7/12/2009 177.00 177.00 177.00
8/12/2009 177.00 177.00 177.00
9/12/2009 177.00 177.00 177.00
10/12/2009 177.00 177.00 177.00
11/12/2009 177.00 177.00 177.00
12/12/2009 177.00 177.00 177.00
13/12/2009 177.00 177.00 177.00
14/12/2009 178.92 179.00 177.00
15/12/2009 179.00 179.00 179.00
16/12/2009 179.01 181.00 179.00
17/12/2009 191.39 192.00 181.00
18/12/2009 192.51 195.00 192.00
19/12/2009 196.42 197.00 195.00
20/12/2009 197.00 197.00 197.00
21/12/2009 199.12 201.00 197.00
22/12/2009 206.70 214.00 201.00
25/12/2009 249.18 251.00 248.00
26/12/2009 256.32 259.00 251.00
28/12/2009 259.00 259.00 259.00
29/12/2009 259.00 259.00 259.00
30/12/2009 259.00 259.00 259.00
31/12/2009 262.97 264.00 259.00
1/1/2010 264.00 264.00 264.00
2/1/2010 264.00 264.00 264.00
3/1/2010 202.08 2.00 0.00
4/1/2010 12.75 17.00 2.00
5/1/2010 19.53 22.00 17.00
6/1/2010 22.78 23.00 22.00
7/1/2010 26.93 32.00 23.00
8/1/2010 32.00 32.00 32.00
9/1/2010 32.00 32.00 32.00
11/1/2010 36.14 37.00 36.00
12/1/2010 38.83 41.00 37.00
13/1/2010 41.68 46.00 41.00
14/1/2010 46.00 46.00 46.00
15/1/2010 46.00 46.00 46.00
16/1/2010 46.00 46.00 46.00
17/1/2010 46.00 46.00 46.00
18/1/2010 46.00 46.00 46.00
19/1/2010 46.00 46.00 46.00
20/1/2010 46.00 46.00 46.00
21/1/2010 46.00 46.00 46.00
22/1/2010 46.00 46.00 46.00
23/1/2010 46.00 46.00 46.00
24/1/2010 46.00 46.00 46.00
25/1/2010 47.64 53.00 46.00
26/1/2010 53.90 54.00 53.00
27/1/2010 54.00 54.00 54.00
28/1/2010 54.00 54.00 54.00
29/1/2010 54.00 54.00 54.00
30/1/2010 54.00 54.00 54.00
31/1/2010 54.00 54.00 54.00
1/2/2010 54.00 54.00 54.00
2/2/2010 54.00 54.00 54.00
3/2/2010 54.00 54.00 54.00
4/2/2010 56.64 59.00 54.00
5/2/2010 59.00 59.00 59.00
11/2/2010 63.00 63.00 63.00
12/2/2010 63.00 63.00 63.00
13/2/2010 63.40 64.00 63.00
14/2/2010 64.00 64.00 64.00
15/2/2010 66.03 70.00 64.00
16/2/2010 73.96 75.00 70.00
17/2/2010 75.90 78.00 75.00
18/2/2010 78.83 84.00 78.00
19/2/2010 85.31 86.00 84.00
20/2/2010 86.00 86.00 86.00
21/2/2010 88.04 90.00 86.00
22/2/2010 90.96 94.00 90.00
23/2/2010 95.69 99.00 94.00
24/2/2010 99.99 100.00 99.00
25/2/2010 100.00 100.00 100.00
26/2/2010 100.00 100.00 100.00
27/2/2010 100.00 100.00 100.00
28/2/2010 100.00 100.00 100.00
1/3/2010 100.00 100.00 100.00
2/3/2010 100.44 104.00 100.00
3/3/2010 107.56 109.00 104.00
4/3/2010 109.93 110.00 109.00
5/3/2010 110.81 115.00 110.00
6/3/2010 118.54 119.00 115.00
7/3/2010 119.56 122.00 119.00
8/3/2010 129.46 131.00 122.00
9/3/2010 131.00 131.00 131.00
10/3/2010 131.00 131.00 131.00
11/3/2010 131.00 131.00 131.00
12/3/2010 131.00 131.00 131.00
13/3/2010 131.00 131.00 131.00
18/3/2010 131.00 131.00 131.00
19/3/2010 131.00 131.00 131.00
20/3/2010 131.00 131.00 131.00
21/3/2010 131.74 134.00 131.00
22/3/2010 134.00 134.00 134.00
23/3/2010 134.00 134.00 134.00
24/3/2010 134.29 135.00 134.00
25/3/2010 135.00 135.00 135.00
26/3/2010 135.00 135.00 135.00
27/3/2010 135.00 135.00 135.00
28/3/2010 135.00 135.00 135.00
29/3/2010 135.00 135.00 135.00
30/3/2010 135.00 135.00 135.00
31/3/2010 135.00 135.00 135.00
1/4/2010 135.00 135.00 135.00
2/4/2010 135.00 135.00 135.00
3/4/2010 135.00 135.00 135.00
4/4/2010 135.79 136.00 135.00
5/4/2010 136.00 136.00 136.00
6/4/2010 136.00 136.00 136.00
7/4/2010 136.00 136.00 136.00
8/4/2010 136.00 136.00 136.00
9/4/2010 136.00 136.00 136.00
10/4/2010 136.00 136.00 136.00
11/4/2010 136.00 136.00 136.00
12/4/2010 136.00 136.00 136.00
13/4/2010 139.22 141.00 136.00
14/4/2010 143.31 144.00 141.00
15/4/2010 144.12 145.00 144.00
16/4/2010 145.71 148.00 145.00
17/4/2010 154.76 166.00 148.00
18/4/2010 168.75 173.00 166.00
19/4/2010 173.93 174.00 173.00
20/4/2010 174.00 174.00 174.00
21/4/2010 174.00 174.00 174.00
22/4/2010 178.97 180.00 174.00
23/4/2010 180.00 180.00 180.00
24/4/2010 180.00 180.00 180.00
25/4/2010 180.00 180.00 180.00
26/4/2010 180.00 180.00 180.00
27/4/2010 180.00 180.00 180.00
28/4/2010 180.00 180.00 180.00
29/4/2010 180.00 180.00 180.00
30/4/2010 180.00 180.00 180.00
1/5/2010 180.00 180.00 180.00
2/5/2010 180.00 180.00 180.00
3/5/2010 180.00 180.00 180.00
4/5/2010 180.00 180.00 180.00
5/5/2010 180.00 180.00 180.00
6/5/2010 180.00 180.00 180.00
7/5/2010 180.00 180.00 180.00
8/5/2010 180.00 180.00 180.00
9/5/2010 180.00 180.00 180.00
10/5/2010 180.94 182.00 180.00
11/5/2010 182.42 183.00 182.00
12/5/2010 183.00 183.00 183.00
13/5/2010 183.10 184.00 183.00
14/5/2010 184.00 184.00 184.00
15/5/2010 184.00 184.00 184.00
16/5/2010 184.00 184.00 184.00
17/5/2010 184.00 184.00 184.00
19/5/2010 184.00 184.00 184.00
20/5/2010 184.00 184.00 184.00
21/5/2010 184.00 184.00 184.00
22/5/2010 184.00 184.00 184.00
23/5/2010 184.00 184.00 184.00
24/5/2010 184.90 185.00 184.00
25/5/2010 185.00 185.00 185.00
26/5/2010 185.00 185.00 185.00
27/5/2010 186.43 192.00 185.00
28/5/2010 192.69 193.00 192.00
29/5/2010 193.00 193.00 193.00
30/5/2010 193.00 193.00 193.00
31/5/2010 193.00 193.00 193.00
1/6/2010 193.00 193.00 193.00
2/6/2010 193.00 193.00 193.00
3/6/2010 193.00 193.00 193.00
4/6/2010 193.00 193.00 193.00
5/6/2010 193.00 193.00 193.00
6/6/2010 193.00 193.00 193.00
7/6/2010 193.00 193.00 193.00
8/6/2010 193.00 193.00 193.00
9/6/2010 198.61 211.00 193.00
14/6/2010 217.00 217.00 217.00
15/6/2010 217.86 218.00 217.00
16/6/2010 218.00 218.00 218.00
17/6/2010 218.00 218.00 218.00
18/6/2010 218.01 219.00 218.00
19/6/2010 219.00 219.00 219.00
20/6/2010 219.00 219.00 219.00
21/6/2010 219.00 219.00 219.00
22/6/2010 219.00 219.00 219.00
23/6/2010 219.00 219.00 219.00
24/6/2010 219.00 219.00 219.00
25/6/2010 219.00 219.00 219.00
26/6/2010 219.00 219.00 219.00
27/6/2010 219.00 219.00 219.00
28/6/2010 219.00 219.00 219.00
4/7/2010 220.00 220.00 220.00
5/7/2010 220.00 220.00 220.00
6/7/2010 220.00 220.00 220.00
7/7/2010 220.00 220.00 220.00
8/7/2010 220.00 220.00 220.00
9/7/2010 220.00 220.00 220.00
10/7/2010 220.00 220.00 220.00
11/7/2010 220.00 220.00 220.00
12/7/2010 220.00 220.00 220.00
13/7/2010 220.00 220.00 220.00
14/7/2010 220.00 220.00 220.00
15/7/2010 220.00 220.00 220.00
16/7/2010 220.00 220.00 220.00
17/7/2010 220.00 220.00 220.00
18/7/2010 220.00 220.00 220.00
19/7/2010 220.00 220.00 220.00
20/7/2010 220.00 220.00 220.00
21/7/2010 220.00 220.00 220.00
22/7/2010 220.00 220.00 220.00
23/7/2010 220.00 220.00 220.00
24/7/2010 220.00 220.00 220.00
25/7/2010 220.00 220.00 220.00
26/7/2010 220.00 220.00 220.00
27/7/2010 220.00 220.00 220.00
28/7/2010 220.00 220.00 220.00
29/7/2010 220.00 220.00 220.00
31/7/2010 220.00 220.00 220.00
1/8/2010 220.00 220.00 220.00
2/8/2010 220.00 220.00 220.00
3/8/2010 220.00 220.00 220.00
4/8/2010 220.00 220.00 220.00
5/8/2010 220.00 220.00 220.00
6/8/2010 220.00 220.00 220.00
7/8/2010 220.00 220.00 220.00
11/8/2010 220.00 220.00 220.00
12/8/2010 220.00 220.00 220.00
13/8/2010 220.33 221.00 220.00
14/8/2010 221.00 221.00 221.00
15/8/2010 221.00 221.00 221.00
17/8/2010 262.00 262.00 262.00
18/8/2010 262.00 262.00 262.00
19/8/2010 271.60 279.00 262.00
20/8/2010 279.00 279.00 279.00
21/8/2010 279.00 279.00 279.00
22/8/2010 279.00 279.00 279.00
23/8/2010 279.00 279.00 279.00
24/8/2010 279.00 279.00 279.00
25/8/2010 279.00 279.00 279.00
26/8/2010 279.00 279.00 279.00
27/8/2010 279.00 279.00 279.00
28/8/2010 279.00 279.00 279.00
29/8/2010 279.00 279.00 279.00
30/8/2010 279.00 279.00 279.00
31/8/2010 279.00 279.00 279.00
1/9/2010 279.00 279.00 279.00
2/9/2010 285.89 288.00 279.00
3/9/2010 288.00 288.00 288.00
4/9/2010 288.00 288.00 288.00
5/9/2010 288.00 288.00 288.00
6/9/2010 288.00 288.00 288.00
7/9/2010 288.00 288.00 288.00
18/9/2010 288.00 288.00 288.00 0.0 0.0 0.0 0.0 0.0 0.0 0.0 0.0 0.0 0.00 -17.78 -17.78 0.00 -17.78 -17.78 0 0 0 0 0 0 0.0 -17.8 -17.8 0.0 -17.8 -17.8 0.00 0.00 0.00 0.00 9.00 9.00
19/9/2010 288.00 288.00 288.00 0.0 0.0 0.0 0.0 0.0 0.0 0.0 0.0 0.0 0.00 -17.78 -17.78 0.00 -17.78 -17.78 0 0 0 0 0 0 0.0 -17.8 -17.8 0.0 -17.8 -17.8 0.00 0.00 0.00 0.00 9.00 9.00
20/9/2010 292.24 298.00 288.00 0.0 0.0 0.0 0.0 0.0 0.0 0.0 0.0 0.0 0.00 0.00 0.00 0.00 0.00 0.00 0 0 0 0 0 0 0.0 0.0 0.0 0.0 0.0 0.0 0.00 0.00 0.00 0.00 0.00 0.00
21/9/2010 298.89 299.00 298.00 0.0 0.0 0.0 0.0 0.0 0.0 0.0 0.0 0.0 0.00 -17.78 -17.78 0.00 -17.78 -17.78 0 0 0 0 0 0 0.0 -17.8 -17.8 0.0 -17.8 -17.8 0.00 10.00 10.00 0.00 12.00 12.00
22/9/2010 299.00 299.00 299.00 0.0 0.0 0.0 0.0 0.0 0.0 0.0 0.0 0.0 0.00 -17.78 -17.78 0.00 -17.78 -17.78 0 0 0 0 0 0 0.0 -17.8 -17.8 0.0 -17.8 -17.8 0.00 1.00 1.00 0.00 12.00 12.00
23/9/2010 300.26 303.00 299.00 0.0 0.0 0.0 0.0 0.0 0.0 0.0 0.0 0.0 0.00 -17.78 -17.78 0.00 -17.78 -17.78 0 0 0 0 0 0 0.0 -17.8 -17.8 0.0 -17.8 -17.8 0.00 0.00 0.00 0.00 12.00 12.00
24/9/2010 303.00 303.00 303.00 0.0 0.0 0.0 0.0 0.0 0.0 0.0 0.0 0.0 0.00 -17.78 -17.78 0.00 -17.78 -17.78 0 0 0 0 0 0 0.0 -17.8 -17.8 0.0 -17.8 -17.8 0.00 4.00 4.00 0.00 12.00 12.00
25/9/2010 303.00 303.00 303.00 0.0 0.0 0.0 0.0 0.0 0.0 0.0 0.0 0.0 0.00 -17.78 -17.78 0.00 -17.78 -17.78 0 0 0 0 0 0 0.0 -17.8 -17.8 0.0 -17.8 -17.8 0.00 0.00 0.00 0.00 12.00 12.00
26/9/2010 303.00 303.00 303.00 0.0 0.0 0.0 0.0 0.0 0.0 0.0 0.0 0.0 0.00 -17.78 -17.78 0.00 -17.78 -17.78 0 0 0 0 0 0 0.0 -17.8 -17.8 0.0 -17.8 -17.8 0.00 0.00 0.00 0.00 12.00 12.00
27/9/2010 303.00 303.00 303.00 0.0 0.0 0.0 0.0 0.0 0.0 0.0 0.0 0.0 0.00 0.00 0.00 0.00 0.00 0.00 0 0 0 0 0 0 0.0 0.0 0.0 0.0 0.0 0.0 0.00 0.00 0.00 0.00 0.00 0.00
28/9/2010 303.00 303.00 303.00 0.0 0.0 0.0 0.0 0.0 0.0 0.0 0.0 0.0 0.00 -17.78 -17.78 0.00 -17.78 -17.78 0 0 0 0 0 0 0.0 -17.8 -17.8 0.0 -17.8 -17.8 0.00 0.00 0.00 0.00 24.00 24.00
29/9/2010 303.00 303.00 303.00 0.0 0.0 0.0 0.0 0.0 0.0 0.0 0.0 0.0 0.00 -17.78 -17.78 0.00 -17.78 -17.78 0 0 0 0 0 0 0.0 -17.8 -17.8 0.0 -17.8 -17.8 0.00 0.00 0.00 0.00 24.00 24.00
30/9/2010 303.00 303.00 303.00 0.0 0.0 0.0 0.0 0.0 0.0 0.0 0.0 0.0 0.00 -17.78 -17.78 0.00 -17.78 -17.78 0 0 0 0 0 0 0.0 -17.8 -17.8 0.0 -17.8 -17.8 0.00 0.00 0.00 0.00 24.00 24.00
1/10/2010 303.00 303.00 303.00 0.0 0.0 0.0 0.0 0.0 0.0 0.0 0.0 0.0 0.00 -17.78 -17.78 0.00 -17.78 -17.78 0 0 0 0 0 0 0.0 -17.8 -17.8 0.0 -17.8 -17.8 0.00 0.00 0.00 0.00 24.00 24.00
2/10/2010 303.00 303.00 303.00 0.0 0.0 0.0 0.0 0.0 0.0 0.0 0.0 0.0 0.00 -17.78 -17.78 0.00 -17.78 -17.78 0 0 0 0 0 0 0.0 -17.8 -17.8 0.0 -17.8 -17.8 0.00 0.00 0.00 0.00 24.00 24.00
3/10/2010 303.00 303.00 303.00 0.0 0.0 0.0 0.0 0.0 0.0 0.0 0.0 0.0 0.00 -17.78 -17.78 0.00 -17.78 -17.78 0 0 0 0 0 0 0.0 -17.8 -17.8 0.0 -17.8 -17.8 0.00 0.00 0.00 0.00 24.00 24.00
4/10/2010 303.81 304.00 303.00 0.0 0.0 0.0 0.0 0.0 0.0 0.0 0.0 0.0 0.00 -17.78 -17.78 0.00 -17.78 -17.78 0 0 0 0 0 0 0.0 -17.8 -17.8 0.0 -17.8 -17.8 0.00 0.00 0.00 0.00 24.00 24.00
5/10/2010 304.00 304.00 304.00 0.0 0.0 0.0 0.0 0.0 0.0 0.0 0.0 0.0 0.00 -17.78 -17.78 0.00 -17.78 -17.78 0 0 0 0 0 0 0.0 -17.8 -17.8 0.0 -17.8 -17.8 0.00 1.00 1.00 0.00 24.00 24.00
6/10/2010 304.00 304.00 304.00 0.0 0.0 0.0 0.0 0.0 0.0 0.0 0.0 0.0 0.00 -17.78 -17.78 0.00 -17.78 -17.78 0 0 0 0 0 0 0.0 -17.8 -17.8 0.0 -17.8 -17.8 0.00 0.00 0.00 0.00 24.00 24.00
7/10/2010 304.00 304.00 304.00 0.0 0.0 0.0 0.0 0.0 0.0 0.0 0.0 0.0 0.00 -17.78 -17.78 0.00 -17.78 -17.78 0 0 0 0 0 0 0.0 -17.8 -17.8 0.0 -17.8 -17.8 0.00 0.00 0.00 0.00 24.00 24.00
8/10/2010 304.00 304.00 304.00 0.0 0.0 0.0 0.0 0.0 0.0 0.0 0.0 0.0 0.00 -17.78 -17.78 0.00 -17.78 -17.78 0 0 0 0 0 0 0.0 -17.8 -17.8 0.0 -17.8 -17.8 0.00 0.00 0.00 0.00 24.00 24.00
9/10/2010 306.47 313.00 304.00 0.0 0.0 0.0 0.0 0.0 0.0 0.0 0.0 0.0 0.00 -17.78 -17.78 0.00 -17.78 -17.78 0 0 0 0 0 0 0.0 -17.8 -17.8 0.0 -17.8 -17.8 0.00 0.00 0.00 0.00 24.00 24.00
10/10/2010 313.00 313.00 313.00 0.0 0.0 0.0 0.0 0.0 0.0 0.0 0.0 0.0 0.00 -17.78 -17.78 0.00 -17.78 -17.78 0 0 0 0 0 0 0.0 -17.8 -17.8 0.0 -17.8 -17.8 0.00 9.00 9.00 0.00 24.00 24.00
11/10/2010 313.00 313.00 313.00 0.0 0.0 0.0 0.0 0.0 0.0 0.0 0.0 0.0 0.00 -17.78 -17.78 0.00 -17.78 -17.78 0 0 0 0 0 0 0.0 -17.8 -17.8 0.0 -17.8 -17.8 0.00 0.00 0.00 0.00 24.00 24.00
12/10/2010 314.17 320.00 313.00 0.0 0.0 0.0 0.0 0.0 0.0 0.0 0.0 0.0 0.00 -17.78 -17.78 0.00 -17.78 -17.78 0 0 0 0 0 0 0.0 -17.8 -17.8 0.0 -17.8 -17.8 0.00 0.00 0.00 0.00 24.00 24.00
13/10/2010 320.00 320.00 320.00 0.0 0.0 0.0 0.0 0.0 0.0 0.0 0.0 0.0 0.00 -17.78 -17.78 0.00 -17.78 -17.78 0 0 0 0 0 0 0.0 -17.8 -17.8 0.0 -17.8 -17.8 0.00 7.00 7.00 0.00 24.00 24.00
14/10/2010 320.00 320.00 320.00 0.0 0.0 0.0 0.0 0.0 0.0 0.0 0.0 0.0 0.00 -17.78 -17.78 0.00 -17.78 -17.78 0 0 0 0 0 0 0.0 -17.8 -17.8 0.0 -17.8 -17.8 0.00 0.00 0.00 0.00 24.00 24.00
15/10/2010 320.00 320.00 320.00 0.0 0.0 0.0 0.0 0.0 0.0 0.0 0.0 0.0 0.00 -17.78 -17.78 0.00 -17.78 -17.78 0 0 0 0 0 0 0.0 -17.8 -17.8 0.0 -17.8 -17.8 0.00 0.00 0.00 0.00 24.00 24.00
16/10/2010 320.00 320.00 320.00 0.0 0.0 0.0 0.0 0.0 0.0 0.0 0.0 0.0 0.00 -17.78 -17.78 0.00 -17.78 -17.78 0 0 0 0 0 0 0.0 -17.8 -17.8 0.0 -17.8 -17.8 0.00 0.00 0.00 0.00 24.00 24.00
17/10/2010 320.00 320.00 320.00 0.0 0.0 0.0 0.0 0.0 0.0 0.0 0.0 0.0 0.00 -17.78 -17.78 0.00 -17.78 -17.78 0 0 0 0 0 0 0.0 -17.8 -17.8 0.0 -17.8 -17.8 0.00 0.00 0.00 0.00 24.00 24.00
18/10/2010 320.00 320.00 320.00 0.0 0.0 0.0 0.0 0.0 0.0 0.0 0.0 0.0 0.00 -17.78 -17.78 0.00 -17.78 -17.78 0 0 0 0 0 0 0.0 -17.8 -17.8 0.0 -17.8 -17.8 0.00 0.00 0.00 0.00 24.00 24.00
19/10/2010 320.00 320.00 320.00 0.0 0.0 0.0 0.0 0.0 0.0 0.0 0.0 0.0 0.00 -17.78 -17.78 0.00 -17.78 -17.78 0 0 0 0 0 0 0.0 -17.8 -17.8 0.0 -17.8 -17.8 0.00 0.00 0.00 0.00 24.00 24.00
20/10/2010 320.00 320.00 320.00 0.0 0.0 0.0 0.0 0.0 0.0 0.0 0.0 0.0 0.00 0.00 0.00 0.00 0.00 0.00 0 0 0 0 0 0 0.0 0.0 0.0 0.0 0.0 0.0 0.00 0.00 0.00 0.00 0.00 0.00
21/10/2010 320.00 320.00 320.00 0.0 0.0 0.0 0.0 0.0 0.0 0.0 0.0 0.0 0.00 -17.78 -17.78 0.00 -17.78 -17.78 0 0 0 0 0 0 0.0 -17.8 -17.8 0.0 -17.8 -17.8 0.00 0.00 0.00 0.00 17.00 17.00
22/10/2010 320.00 320.00 320.00 0.0 0.0 0.0 0.0 0.0 0.0 0.0 0.0 0.0 0.00 -17.78 -17.78 0.00 -17.78 -17.78 0 0 0 0 0 0 0.0 -17.8 -17.8 0.0 -17.8 -17.8 0.00 0.00 0.00 0.00 17.00 17.00
23/10/2010 320.00 320.00 320.00 0.0 0.0 0.0 0.0 0.0 0.0 0.0 0.0 0.0 0.00 -17.78 -17.78 0.00 -17.78 -17.78 0 0 0 0 0 0 0.0 -17.8 -17.8 0.0 -17.8 -17.8 0.00 0.00 0.00 0.00 17.00 17.00
24/10/2010 320.00 320.00 320.00 0.0 0.0 0.0 0.0 0.0 0.0 0.0 0.0 0.0 0.00 -17.78 -17.78 0.00 -17.78 -17.78 0 0 0 0 0 0 0.0 -17.8 -17.8 0.0 -17.8 -17.8 0.00 0.00 0.00 0.00 17.00 17.00
25/10/2010 320.00 320.00 320.00 0.0 0.0 0.0 0.0 0.0 0.0 0.0 0.0 0.0 0.00 0.00 0.00 0.00 0.00 0.00 0 0 0 0 0 0 0.0 0.0 0.0 0.0 0.0 0.0 0.00 0.00 0.00 0.00 0.00 0.00
26/10/2010 320.00 320.00 320.00 0.0 0.0 0.0 0.0 0.0 0.0 0.0 0.0 0.0 0.00 -17.78 -17.78 0.00 -17.78 -17.78 0 0 0 0 0 0 0.0 -17.8 -17.8 0.0 -17.8 -17.8 0.00 0.00 0.00 0.00 17.00 17.00
27/10/2010 320.00 320.00 320.00 0.0 0.0 0.0 0.0 0.0 0.0 0.0 0.0 0.0 0.00 -17.78 -17.78 0.00 -17.78 -17.78 0 0 0 0 0 0 0.0 -17.8 -17.8 0.0 -17.8 -17.8 0.00 0.00 0.00 0.00 17.00 17.00
28/10/2010 320.00 320.00 320.00 0.0 0.0 0.0 0.0 0.0 0.0 0.0 0.0 0.0 0.00 -17.78 -17.78 0.00 -17.78 -17.78 0 0 0 0 0 0 0.0 -17.8 -17.8 0.0 -17.8 -17.8 0.00 0.00 0.00 0.00 17.00 17.00
29/10/2010 320.00 320.00 320.00 0.0 0.0 0.0 0.0 0.0 0.0 0.0 0.0 0.0 0.00 -17.78 -17.78 0.00 -17.78 -17.78 0 0 0 0 0 0 0.0 -17.8 -17.8 0.0 -17.8 -17.8 0.00 0.00 0.00 0.00 17.00 17.00
30/10/2010 320.00 321.00 320.00 0.0 0.0 0.0 0.0 0.0 0.0 0.0 0.0 0.0 0.00 -17.78 -17.78 0.00 -17.78 -17.78 0 0 0 0 0 0 0.0 -17.8 -17.8 0.0 -17.8 -17.8 0.00 0.00 0.00 0.00 17.00 17.00
31/10/2010 327.11 330.00 321.00 0.0 0.0 0.0 0.0 0.0 0.0 0.0 0.0 0.0 0.00 -17.78 -17.78 0.00 -17.78 -17.78 0 0 0 0 0 0 0.0 -17.8 -17.8 0.0 -17.8 -17.8 0.00 1.00 1.00 0.00 17.00 17.00
1/11/2010 330.00 330.00 330.00 0.0 0.0 0.0 0.0 0.0 0.0 0.0 0.0 0.0 0.00 -17.78 -17.78 0.00 -17.78 -17.78 0 0 0 0 0 0 0.0 -17.8 -17.8 0.0 -17.8 -17.8 0.00 8.00 8.00 0.00 17.00 17.00
2/11/2010 330.00 330.00 330.00 0.0 0.0 0.0 0.0 0.0 0.0 0.0 0.0 0.0 0.00 -17.78 -17.78 0.00 -17.78 -17.78 0 0 0 0 0 0 0.0 -17.8 -17.8 0.0 -17.8 -17.8 0.00 0.00 0.00 0.00 17.00 17.00
3/11/2010 330.00 330.00 330.00 0.0 0.0 0.0 0.0 0.0 0.0 0.0 0.0 0.0 0.00 -17.78 -17.78 0.00 -17.78 -17.78 0 0 0 0 0 0 0.0 -17.8 -17.8 0.0 -17.8 -17.8 0.00 0.00 0.00 0.00 17.00 17.00
4/11/2010 330.00 330.00 330.00 0.0 0.0 0.0 0.0 0.0 0.0 0.0 0.0 0.0 0.00 -17.78 -17.78 0.00 -17.78 -17.78 0 0 0 0 0 0 0.0 -17.8 -17.8 0.0 -17.8 -17.8 0.00 0.00 0.00 0.00 17.00 17.00
5/11/2010 330.00 330.00 330.00 0.0 0.0 0.0 0.0 0.0 0.0 0.0 0.0 0.0 0.00 -17.78 -17.78 0.00 -17.78 -17.78 0 0 0 0 0 0 0.0 -17.8 -17.8 0.0 -17.8 -17.8 0.00 0.00 0.00 0.00 17.00 17.00
6/11/2010 330.00 330.00 330.00 0.0 0.0 0.0 0.0 0.0 0.0 0.0 0.0 0.0 0.00 -17.78 -17.78 0.00 -17.78 -17.78 0 0 0 0 0 0 0.0 -17.8 -17.8 0.0 -17.8 -17.8 0.00 0.00 0.00 0.00 17.00 17.00
Today's Data File
7/11/10
Time Tot Rain Wind Dir R Wind Spd R Humidity R Temp Out R WindCh R Wind Spd H WindGust H Temp Out H Temp Out L 24HrRain MonthRain
mm °/hr km/hr/hr %/hr °C/hr °C/hr km/hr km/hr °C °C mm mm
0:00 330.00 9.6 1.0 0.0 0.00 -0.14 8 8 10.5 10.5 0.00 0.00
0:20 330.00 11.8 3.1 0.0 0.00 -0.64 8 8 10.5 10.5 0.00 0.00
0:40 330.00 15.0 -0.1 0.0 0.00 0.11 9 9 10.5 10.5 0.00 0.00
1:00 330.00 9.4 1.0 0.0 0.00 -0.21 10 10 10.5 10.5 0.00 0.00
1:20 330.00 -11.4 0.1 0.0 0.00 -0.00 10 10 10.5 10.5 0.00 0.00
1:40 330.00 7.6 0.9 0.0 0.00 -0.20 10 10 10.5 10.5 0.00 0.00
2:00 330.00 -54.2 0.2 0.0 0.00 -0.04 10 10 10.5 10.5 0.00 0.00
2:20 330.00 -0.6 2.5 0.0 0.00 -0.56 10 10 10.5 10.5 0.00 0.00
2:40 330.00 4.2 -0.3 0.0 0.00 0.13 10 10 10.5 10.5 0.00 0.00
3:00 330.00 30.0 0.5 0.0 0.00 -0.09 10 10 10.5 10.5 0.00 0.00
3:20 330.00 -17.3 -0.7 0.0 0.00 0.25 10 10 10.5 10.5 0.00 0.00
3:40 330.00 5.3 -0.5 0.0 0.00 0.21 10 10 10.5 10.5 0.00 0.00
4:00 330.00 1.4 1.4 0.0 0.00 -0.21 10 10 10.5 10.5 0.00 0.00
4:20 330.00 24.5 1.2 0.0 0.00 -0.20 10 10 10.5 10.5 0.00 0.00
4:40 330.00 5.1 3.0 0.0 0.00 -0.64 10 10 10.5 10.5 0.00 0.00
5:00 330.00 -7.3 0.6 0.0 0.00 -0.10 10 10 10.5 10.5 0.00 0.00
5:20 330.00 -1.8 -0.5 0.0 0.00 0.22 10 10 10.5 10.5 0.00 0.00
5:40 330.00 -9.9 -1.1 0.0 0.00 0.21 10 10 10.5 10.5 0.00 0.00
6:00 330.00 -0.5 -4.1 0.0 0.00 0.16 10 10 10.5 10.5 0.00 0.00
6:20 330.00 1.7 1.3 0.0 0.00 -0.04 10 10 10.5 10.5 0.00 0.00
6:40 330.00 15.8 5.6 0.0 0.00 -1.04 10 10 10.5 10.5 0.00 0.00
7:00 330.00 5.3 -0.0 0.0 0.00 0.15 10 10 10.5 10.5 0.00 0.00
7:20 330.00 2.5 0.6 0.0 0.00 -0.07 10 10 10.5 10.5 0.00 0.00
7:40 330.00 -2.6 0.3 0.0 0.00 -0.01 10 10 10.5 10.5 0.00 0.00
8:00 330.00 -14.8 1.8 0.0 0.00 -0.39 10 10 10.5 10.5 0.00 0.00
8:20 330.00 -4.8 1.6 0.0 0.00 -0.36 10 10 10.5 10.5 0.00 0.00
8:40 330.00 -14.3 0.2 0.0 0.00 -0.05 12 12 10.5 10.5 0.00 0.00
9:00 330.00 13.9 2.3 0.0 0.00 -0.50 12 12 10.5 10.5 0.00 0.00
9:20 330.00 -23.6 -1.4 0.0 0.00 0.35 12 12 10.5 10.5 0.00 0.00
9:40 330.00 -37.2 -1.4 0.0 0.00 0.34 12 12 10.5 10.5 0.00 0.00
10:00 330.00 14.6 -1.1 0.0 0.00 0.30 12 12 10.5 10.5 0.00 0.00
10:20 330.00 13.0 3.5 0.0 0.00 -0.71 13 13 10.5 10.5 0.00 0.00
10:40 330.00 -49.0 4.9 0.0 0.00 -0.88 21 21 10.5 10.5 0.00 0.00
11:00 330.00 -35.7 3.6 0.0 0.00 -0.65 21 21 10.5 10.5 0.00 0.00
11:20 330.00 -1.0 -1.6 0.0 0.00 0.15 21 21 10.5 10.5 0.00 0.00
11:40 330.00 -63.0 1.1 0.0 0.00 -0.25 21 21 10.5 10.5 0.00 0.00
12:00 330.00 -33.1 0.3 0.0 0.00 -0.13 21 21 10.5 10.5 0.00 0.00
12:20 330.00 3.6 0.1 0.0 0.00 -0.08 21 21 10.5 10.5 0.00 0.00
12:40 330.00 47.9 -0.3 0.0 0.00 -0.03 25 25 10.5 10.5 0.00 0.00
13:00 330.00 -24.5 2.4 0.0 0.00 -0.35 25 25 10.5 10.5 0.00 0.00
13:20 330.00 46.0 -1.7 0.0 0.00 0.18 25 25 10.5 10.5 0.00 0.00
13:40 330.00 -33.0 -2.2 0.0 0.00 0.24 25 25 10.5 10.5 0.00 0.00
14:00 330.00 -6.3 -4.8 0.0 0.00 0.67 25 25 10.5 10.5 0.00 0.00
14:20 330.00 -19.5 2.7 0.0 0.00 -0.35 25 25 10.5 10.5 0.00 0.00
14:40 330.00 -24.8 -0.2 0.0 0.00 -0.02 25 25 10.5 10.5 0.00 0.00
15:00 330.00 -31.7 -2.1 0.0 0.00 0.24 25 25 10.5 10.5 0.00 0.00
15:20 330.00 -46.4 2.4 0.0 0.00 -0.30 25 25 10.5 10.5 0.00 0.00
15:40 330.00 -28.1 -1.2 0.0 0.00 0.12 25 25 10.5 10.5 0.00 0.00
16:00 330.00 -14.1 -1.8 0.0 0.00 0.20 25 25 10.5 10.5 0.00 0.00
16:20 330.00 56.3 5.1 0.0 0.00 -0.55 26 26 10.5 10.5 0.00 0.00
16:40 330.00 -41.4 4.6 0.0 0.00 -0.50 26 26 10.5 10.5 0.00 0.00
17:00 330.00 -18.2 -2.8 0.0 0.00 0.31 27 27 10.5 10.5 0.00 0.00
17:20 330.00 -1.6 0.5 0.0 0.00 -0.09 27 27 10.5 10.5 0.00 0.00
17:40 330.00 -14.3 0.7 0.0 0.00 -0.13 27 27 10.5 10.5 0.00 0.00
18:00 330.00 -33.0 -4.3 0.0 0.00 0.56 27 27 10.5 10.5 0.00 0.00
18:20 330.00 -5.4 -0.5 0.0 0.00 0.02 27 27 10.5 10.5 0.00 0.00
18:40 330.00 28.1 6.7 0.0 0.00 -0.79 27 27 10.5 10.5 0.00 0.00
Yesterday's Data File
6/11/10
Time Tot Rain Wind Dir R Wind Spd R Humidity R Temp Out R WindCh R Wind Spd H WindGust H Temp Out H Temp Out L 24HrRain MonthRain
mm °/hr km/hr/hr %/hr °C/hr °C/hr km/hr km/hr °C °C mm mm
0:00 330.00 -1.3 0.7 0.0 -0.00 -0.16 10 10 8.5 8.5 0.00 0.00
0:20 330.00 0.9 -1.4 0.0 -0.00 0.48 10 10 8.5 8.5 0.00 0.00
0:40 330.00 5.1 -4.4 0.0 -0.00 0.50 10 10 8.5 8.5 0.00 0.00
1:00 330.00 3.7 -3.1 0.0 -0.00 0.36 10 10 8.5 8.5 0.00 0.00
1:20 330.00 2.6 -2.3 0.0 -0.00 0.26 10 10 8.5 8.5 0.00 0.00
1:40 330.00 1.9 -1.6 0.0 -0.00 0.19 10 10 8.5 8.5 0.00 0.00
2:00 330.00 1.4 -1.2 0.0 -0.00 0.13 10 10 8.5 8.5 0.00 0.00
2:20 330.00 1.0 -0.8 0.0 -0.00 0.10 10 10 8.5 8.5 0.00 0.00
2:40 330.00 0.7 -0.6 0.0 -0.00 0.07 10 10 8.5 8.5 0.00 0.00
3:00 330.00 0.5 -0.4 0.0 -0.00 0.05 10 10 8.5 8.5 0.00 0.00
3:20 330.00 0.4 -0.3 0.0 -0.00 0.04 10 10 8.5 8.5 0.00 0.00
3:40 330.00 -70.2 4.0 0.0 -0.00 -0.17 10 10 8.5 8.5 0.00 0.00
4:00 330.00 200.9 -0.4 0.0 -0.00 0.03 10 10 8.5 8.5 0.00 0.00
4:20 330.00 -172.1 -0.3 0.0 -0.00 0.02 10 10 8.5 8.5 0.00 0.00
4:40 330.00 -123.1 -0.2 0.0 -0.00 0.02 10 10 8.5 8.5 0.00 0.00
5:00 330.00 -44.5 -0.4 0.0 -0.00 0.02 10 10 8.5 8.5 0.00 0.00
5:20 330.00 -32.0 -0.5 0.0 -0.00 0.03 10 10 8.5 8.5 0.00 0.00
5:40 330.00 -22.9 -0.5 0.0 -0.00 0.02 10 10 8.5 8.5 0.00 0.00
6:00 330.00 -16.4 -0.6 0.0 -0.00 0.03 10 10 8.5 8.5 0.00 0.00
6:20 330.00 -11.8 -0.4 0.0 -0.00 0.02 10 10 8.5 8.5 0.00 0.00
6:40 330.00 -8.4 -0.3 0.0 -0.00 0.02 10 10 8.5 8.5 0.00 0.00
7:00 330.00 -6.0 -0.3 0.0 -0.00 0.01 10 10 8.5 8.5 0.00 0.00
7:20 330.00 -4.3 -0.2 0.0 -0.00 0.01 10 10 8.5 8.5 0.00 0.00
7:40 330.00 -3.1 -0.2 0.0 -0.00 0.01 10 10 8.5 8.5 0.00 0.00
8:00 330.00 209.6 -0.2 0.0 -0.00 0.01 10 10 8.5 8.5 0.00 0.00
8:20 330.00 146.9 -0.3 0.0 -0.00 0.01 10 10 8.5 8.5 0.00 0.00
8:40 330.00 131.5 -0.3 0.0 -0.00 0.01 10 10 8.5 8.5 0.00 0.00
9:00 330.00 94.1 -0.3 0.0 -0.00 0.01 10 10 8.5 8.5 0.00 0.00
9:20 330.00 30.3 4.7 0.0 -0.00 -0.43 10 10 8.5 8.5 0.00 0.00
9:40 330.00 54.8 -0.6 0.0 -0.00 0.04 10 10 8.5 8.5 0.00 0.00
10:00 330.00 38.5 -0.5 0.0 -0.00 0.03 10 10 8.5 8.5 0.00 0.00
10:20 330.00 27.6 -0.5 0.0 -0.00 0.03 10 10 8.5 8.5 0.00 0.00
10:40 330.00 18.3 5.5 0.0 -0.00 -0.81 10 10 8.5 8.5 0.00 0.00
11:00 330.00 12.4 -1.2 0.0 -0.00 0.07 10 10 8.5 8.5 0.00 0.00
11:20 330.00 -34.5 -1.3 0.0 -0.00 0.07 10 10 8.5 8.5 0.00 0.00
11:40 330.00 34.7 3.3 1.0 1.93 1.86 10 10 10.5 8.5 0.00 0.00
12:00 330.00 -33.9 -1.6 0.7 1.39 1.47 10 10 10.5 8.5 0.00 0.00
12:20 330.00 36.7 4.3 0.5 1.00 0.69 10 10 10.5 8.5 0.00 0.00
12:40 330.00 24.4 2.8 0.4 0.71 0.78 10 10 10.5 8.5 0.00 0.00
13:00 330.00 7.8 3.2 0.3 0.51 0.41 10 10 10.5 8.5 0.00 0.00
13:20 330.00 -25.5 -1.5 0.2 0.37 0.43 10 10 10.5 8.5 0.00 0.00
13:40 330.00 16.5 2.6 0.1 0.26 0.33 10 10 10.5 8.5 0.00 0.00
14:00 330.00 -16.6 -1.6 0.1 0.19 0.25 10 10 10.5 8.5 0.00 0.00
14:20 330.00 39.5 -1.7 0.1 0.14 0.19 10 10 10.5 8.5 0.00 0.00
14:40 330.00 -21.4 -2.0 0.0 0.10 0.16 10 10 10.5 8.5 0.00 0.00
15:00 330.00 35.6 4.3 0.0 0.07 -0.40 10 10 10.5 8.5 0.00 0.00
15:20 330.00 -6.3 2.8 0.0 0.05 -0.20 10 10 10.5 8.5 0.00 0.00
15:40 330.00 41.4 2.0 0.0 0.04 -0.13 10 10 10.5 8.5 0.00 0.00
16:00 330.00 37.0 3.0 0.0 0.03 -0.47 13 13 10.5 8.5 0.00 0.00
16:20 330.00 23.5 2.9 0.0 0.02 -0.50 13 13 10.5 8.5 0.00 0.00
16:40 330.00 38.5 0.4 0.0 0.01 0.01 13 13 10.5 8.5 0.00 0.00
17:00 330.00 8.9 -0.4 0.0 0.01 0.17 13 13 10.5 8.5 0.00 0.00
17:20 330.00 -2.0 1.3 0.0 0.01 -0.26 13 13 10.5 8.5 0.00 0.00
17:40 330.00 -7.6 2.5 0.0 0.00 -0.49 13 13 10.5 8.5 0.00 0.00
18:00 330.00 -28.1 -0.3 0.0 0.00 0.07 13 13 10.5 8.5 0.00 0.00
18:20 330.00 -22.2 -1.4 0.0 0.00 0.37 13 13 10.5 8.5 0.00 0.00
18:40 330.00 23.2 -0.2 0.0 0.00 0.04 13 13 10.5 8.5 0.00 0.00
19:00 330.00 17.9 -1.3 0.0 0.00 0.33 13 13 10.5 8.5 0.00 0.00
19:20 330.00 19.8 0.5 0.0 0.00 -0.12 13 13 10.5 8.5 0.00 0.00
19:40 330.00 -16.8 -0.3 0.0 0.00 0.20 13 13 10.5 8.5 0.00 0.00
20:00 330.00 12.9 1.4 0.0 0.00 -0.22 13 13 10.5 8.5 0.00 0.00
20:20 330.00 15.4 -0.2 0.0 0.00 0.16 13 13 10.5 8.5 0.00 0.00
20:40 330.00 11.1 -0.1 0.0 0.00 0.14 13 13 10.5 8.5 0.00 0.00
21:00 330.00 8.0 -0.1 0.0 0.00 0.11 13 13 10.5 8.5 0.00 0.00
21:20 330.00 6.7 1.9 0.0 0.00 -0.42 13 13 10.5 8.5 0.00 0.00
21:40 330.00 -7.2 0.8 0.0 0.00 -0.16 13 13 10.5 8.5 0.00 0.00
22:00 330.00 -34.8 -0.3 0.0 0.00 0.11 13 13 10.5 8.5 0.00 0.00
22:20 330.00 11.3 -0.3 0.0 0.00 0.10 13 13 10.5 8.5 0.00 0.00
22:40 330.00 11.9 1.8 0.0 0.00 -0.43 13 13 10.5 8.5 0.00 0.00
23:00 330.00 22.0 -1.3 0.0 0.00 0.34 13 13 10.5 8.5 0.00 0.00
23:20 330.00 8.2 0.1 0.0 0.00 -0.03 13 13 10.5 8.5 0.00 0.00
23:40 330.00 -10.0 0.3 0.0 0.00 0.08 13 13 10.5 8.5 0.00 0.00
Updated Automatically by Ambient Weather's
Virtual Weather Station V14.01
©All rights
reserved. Unauthorized duplication or distribution is prohibited
Never base important decisions on this
or any weather information obtained from the Internet